<?xml version="1.0" encoding="utf-8"?>
<gpx xmlns:xsi="http://www.w3.org/2001/XMLSchema-instance" xmlns:xsd="http://www.w3.org/2001/XMLSchema" version="1.1" creator="Shapelink.com" xmlns="http://www.topografix.com/GPX/1/1" xmlns:gpxtpx="http://www.garmin.com/xmlschemas/TrackPointExtension/v1">
  <metadata>
    <name>Laufen 6.38 km, 2019-10-03</name>
    <desc></desc>
    <author><name>Daniel Persson</name></author> 
    <time>2019-10-03T14:07:02Z</time>
  </metadata>
  <trk>
    <name>Laufen 6.38 km, 2019-10-03</name>
    <trkseg>
      <trkpt lat="57.782612567739" lon="13.439877591674">
        <ele>293.6</ele>
        <time>2019-10-03T14:07:02Z</time>
      </trkpt>
      <trkpt lat="57.782534616069" lon="13.439949759833">
        <ele>292.4</ele>
        <time>2019-10-03T14:07:06Z</time>
      </trkpt>
      <trkpt lat="57.7824632861" lon="13.440080433654">
        <ele>292.2</ele>
        <time>2019-10-03T14:07:10Z</time>
      </trkpt>
      <trkpt lat="57.782439481504" lon="13.440165761396">
        <ele>292.4</ele>
        <time>2019-10-03T14:07:12Z</time>
      </trkpt>
      <trkpt lat="57.782325236207" lon="13.440425684115">
        <ele>292</ele>
        <time>2019-10-03T14:07:19Z</time>
      </trkpt>
      <trkpt lat="57.782231778022" lon="13.440765067246">
        <ele>292</ele>
        <time>2019-10-03T14:07:26Z</time>
      </trkpt>
      <trkpt lat="57.782212332014" lon="13.440793398068">
        <ele>292.2</ele>
        <time>2019-10-03T14:07:27Z</time>
      </trkpt>
      <trkpt lat="57.782095655966" lon="13.440834637016">
        <ele>292</ele>
        <time>2019-10-03T14:07:33Z</time>
      </trkpt>
      <trkpt lat="57.782034216639" lon="13.440885012235">
        <ele>291.4</ele>
        <time>2019-10-03T14:07:36Z</time>
      </trkpt>
      <trkpt lat="57.78185727473" lon="13.440973608918">
        <ele>291.2</ele>
        <time>2019-10-03T14:07:44Z</time>
      </trkpt>
      <trkpt lat="57.781832464306" lon="13.440997497333">
        <ele>290</ele>
        <time>2019-10-03T14:07:46Z</time>
      </trkpt>
      <trkpt lat="57.7817675884" lon="13.441011830382">
        <ele>288.2</ele>
        <time>2019-10-03T14:07:49Z</time>
      </trkpt>
      <trkpt lat="57.781701874304" lon="13.441022391576">
        <ele>287</ele>
        <time>2019-10-03T14:07:52Z</time>
      </trkpt>
      <trkpt lat="57.781687373617" lon="13.441055164805">
        <ele>287</ele>
        <time>2019-10-03T14:07:54Z</time>
      </trkpt>
      <trkpt lat="57.781679997545" lon="13.441138983805">
        <ele>287</ele>
        <time>2019-10-03T14:07:57Z</time>
      </trkpt>
      <trkpt lat="57.781648481601" lon="13.441404606216">
        <ele>288.4</ele>
        <time>2019-10-03T14:08:06Z</time>
      </trkpt>
      <trkpt lat="57.781641524624" lon="13.441454310883">
        <ele>288.8</ele>
        <time>2019-10-03T14:08:08Z</time>
      </trkpt>
      <trkpt lat="57.781507246586" lon="13.44167332993">
        <ele>288.8</ele>
        <time>2019-10-03T14:08:17Z</time>
      </trkpt>
      <trkpt lat="57.781352935807" lon="13.441786653218">
        <ele>289.2</ele>
        <time>2019-10-03T14:08:25Z</time>
      </trkpt>
      <trkpt lat="57.781318234741" lon="13.441843817776">
        <ele>289.6</ele>
        <time>2019-10-03T14:08:27Z</time>
      </trkpt>
      <trkpt lat="57.781263417115" lon="13.441946412232">
        <ele>290.4</ele>
        <time>2019-10-03T14:08:31Z</time>
      </trkpt>
      <trkpt lat="57.781251179541" lon="13.442044983376">
        <ele>290.2</ele>
        <time>2019-10-03T14:08:34Z</time>
      </trkpt>
      <trkpt lat="57.781272469567" lon="13.4424134517">
        <ele>289.4</ele>
        <time>2019-10-03T14:08:45Z</time>
      </trkpt>
      <trkpt lat="57.781290490652" lon="13.44275459503">
        <ele>289.8</ele>
        <time>2019-10-03T14:08:53Z</time>
      </trkpt>
      <trkpt lat="57.781289065729" lon="13.442932375129">
        <ele>290.6</ele>
        <time>2019-10-03T14:08:58Z</time>
      </trkpt>
      <trkpt lat="57.781331394324" lon="13.443175031134">
        <ele>290.6</ele>
        <time>2019-10-03T14:09:06Z</time>
      </trkpt>
      <trkpt lat="57.781365005743" lon="13.443213168779">
        <ele>292</ele>
        <time>2019-10-03T14:09:09Z</time>
      </trkpt>
      <trkpt lat="57.781382943009" lon="13.443273267002">
        <ele>292.8</ele>
        <time>2019-10-03T14:09:11Z</time>
      </trkpt>
      <trkpt lat="57.781396521687" lon="13.443309979724">
        <ele>293.2</ele>
        <time>2019-10-03T14:09:12Z</time>
      </trkpt>
      <trkpt lat="57.781400964094" lon="13.443335963614">
        <ele>293.2</ele>
        <time>2019-10-03T14:09:13Z</time>
      </trkpt>
      <trkpt lat="57.781371292168" lon="13.443378459847">
        <ele>292</ele>
        <time>2019-10-03T14:09:17Z</time>
      </trkpt>
      <trkpt lat="57.781329885582" lon="13.443457249707">
        <ele>290.8</ele>
        <time>2019-10-03T14:09:20Z</time>
      </trkpt>
      <trkpt lat="57.781168617826" lon="13.443631006494">
        <ele>290.4</ele>
        <time>2019-10-03T14:09:30Z</time>
      </trkpt>
      <trkpt lat="57.781097958409" lon="13.443627569915">
        <ele>289.8</ele>
        <time>2019-10-03T14:09:34Z</time>
      </trkpt>
      <trkpt lat="57.781031825218" lon="13.443656403651">
        <ele>291.2</ele>
        <time>2019-10-03T14:09:38Z</time>
      </trkpt>
      <trkpt lat="57.780946329838" lon="13.443729661457">
        <ele>291.8</ele>
        <time>2019-10-03T14:09:43Z</time>
      </trkpt>
      <trkpt lat="57.78092353107" lon="13.444087065673">
        <ele>290.8</ele>
        <time>2019-10-03T14:09:53Z</time>
      </trkpt>
      <trkpt lat="57.780917747559" lon="13.44431195205">
        <ele>290</ele>
        <time>2019-10-03T14:09:59Z</time>
      </trkpt>
      <trkpt lat="57.780918837206" lon="13.444393675575">
        <ele>289</ele>
        <time>2019-10-03T14:10:01Z</time>
      </trkpt>
      <trkpt lat="57.780924117803" lon="13.444496940583">
        <ele>288</ele>
        <time>2019-10-03T14:10:04Z</time>
      </trkpt>
      <trkpt lat="57.781026963716" lon="13.444773627102">
        <ele>287.6</ele>
        <time>2019-10-03T14:10:13Z</time>
      </trkpt>
      <trkpt lat="57.781085469378" lon="13.4449112579">
        <ele>288.4</ele>
        <time>2019-10-03T14:10:19Z</time>
      </trkpt>
      <trkpt lat="57.781093348364" lon="13.444936235962">
        <ele>289</ele>
        <time>2019-10-03T14:10:20Z</time>
      </trkpt>
      <trkpt lat="57.781111620906" lon="13.444995328357">
        <ele>290</ele>
        <time>2019-10-03T14:10:22Z</time>
      </trkpt>
      <trkpt lat="57.78112469667" lon="13.445019971143">
        <ele>290.6</ele>
        <time>2019-10-03T14:10:23Z</time>
      </trkpt>
      <trkpt lat="57.781149423275" lon="13.445063473204">
        <ele>291.2</ele>
        <time>2019-10-03T14:10:25Z</time>
      </trkpt>
      <trkpt lat="57.781168198731" lon="13.44509482151">
        <ele>291.8</ele>
        <time>2019-10-03T14:10:27Z</time>
      </trkpt>
      <trkpt lat="57.781198373571" lon="13.445115524803">
        <ele>291.6</ele>
        <time>2019-10-03T14:10:29Z</time>
      </trkpt>
      <trkpt lat="57.781252436826" lon="13.445201523097">
        <ele>291.2</ele>
        <time>2019-10-03T14:10:33Z</time>
      </trkpt>
      <trkpt lat="57.781335166179" lon="13.445505199334">
        <ele>291.2</ele>
        <time>2019-10-03T14:10:42Z</time>
      </trkpt>
      <trkpt lat="57.78139962299" lon="13.445559681684">
        <ele>291.2</ele>
        <time>2019-10-03T14:10:46Z</time>
      </trkpt>
      <trkpt lat="57.781497104487" lon="13.445654145697">
        <ele>290.6</ele>
        <time>2019-10-03T14:10:52Z</time>
      </trkpt>
      <trkpt lat="57.78155971728" lon="13.445749783176">
        <ele>292.6</ele>
        <time>2019-10-03T14:10:58Z</time>
      </trkpt>
      <trkpt lat="57.781571368121" lon="13.445759003266">
        <ele>293.8</ele>
        <time>2019-10-03T14:11:01Z</time>
      </trkpt>
      <trkpt lat="57.781596765278" lon="13.4457829755">
        <ele>294.8</ele>
        <time>2019-10-03T14:11:04Z</time>
      </trkpt>
      <trkpt lat="57.781618139123" lon="13.445809713761">
        <ele>295.4</ele>
        <time>2019-10-03T14:11:06Z</time>
      </trkpt>
      <trkpt lat="57.781653762198" lon="13.445872745649">
        <ele>295.4</ele>
        <time>2019-10-03T14:11:10Z</time>
      </trkpt>
      <trkpt lat="57.781695168784" lon="13.445894706227">
        <ele>295.4</ele>
        <time>2019-10-03T14:11:13Z</time>
      </trkpt>
      <trkpt lat="57.781724086339" lon="13.445893700399">
        <ele>295.4</ele>
        <time>2019-10-03T14:11:15Z</time>
      </trkpt>
      <trkpt lat="57.781764738554" lon="13.445944327075">
        <ele>295.8</ele>
        <time>2019-10-03T14:11:18Z</time>
      </trkpt>
      <trkpt lat="57.781786363856" lon="13.445989924611">
        <ele>297.2</ele>
        <time>2019-10-03T14:11:22Z</time>
      </trkpt>
      <trkpt lat="57.781789800435" lon="13.446006017859">
        <ele>297.6</ele>
        <time>2019-10-03T14:11:23Z</time>
      </trkpt>
      <trkpt lat="57.781792063548" lon="13.446027643161">
        <ele>298.2</ele>
        <time>2019-10-03T14:11:25Z</time>
      </trkpt>
      <trkpt lat="57.781783430191" lon="13.446090423592">
        <ele>299.6</ele>
        <time>2019-10-03T14:11:30Z</time>
      </trkpt>
      <trkpt lat="57.781797092688" lon="13.446135685852">
        <ele>300.8</ele>
        <time>2019-10-03T14:11:34Z</time>
      </trkpt>
      <trkpt lat="57.781811593375" lon="13.446179690827">
        <ele>301.8</ele>
        <time>2019-10-03T14:11:38Z</time>
      </trkpt>
      <trkpt lat="57.781844785699" lon="13.446222438517">
        <ele>302.6</ele>
        <time>2019-10-03T14:11:42Z</time>
      </trkpt>
      <trkpt lat="57.781860795128" lon="13.446261498171">
        <ele>303</ele>
        <time>2019-10-03T14:11:45Z</time>
      </trkpt>
      <trkpt lat="57.781868590295" lon="13.446291421554">
        <ele>303.4</ele>
        <time>2019-10-03T14:11:47Z</time>
      </trkpt>
      <trkpt lat="57.781899100411" lon="13.446353112338">
        <ele>303.2</ele>
        <time>2019-10-03T14:11:51Z</time>
      </trkpt>
      <trkpt lat="57.78198048866" lon="13.44648034958">
        <ele>302.8</ele>
        <time>2019-10-03T14:11:58Z</time>
      </trkpt>
      <trkpt lat="57.782016447011" lon="13.446498035389">
        <ele>301.8</ele>
        <time>2019-10-03T14:12:01Z</time>
      </trkpt>
      <trkpt lat="57.782058188873" lon="13.446478924657">
        <ele>300.4</ele>
        <time>2019-10-03T14:12:04Z</time>
      </trkpt>
      <trkpt lat="57.782099930735" lon="13.446445732333">
        <ele>299</ele>
        <time>2019-10-03T14:12:07Z</time>
      </trkpt>
      <trkpt lat="57.782133709792" lon="13.446417988244">
        <ele>297.8</ele>
        <time>2019-10-03T14:12:10Z</time>
      </trkpt>
      <trkpt lat="57.782160867148" lon="13.446388483956">
        <ele>296.4</ele>
        <time>2019-10-03T14:12:12Z</time>
      </trkpt>
      <trkpt lat="57.78222691652" lon="13.446363757351">
        <ele>296.2</ele>
        <time>2019-10-03T14:12:17Z</time>
      </trkpt>
      <trkpt lat="57.78229900086" lon="13.446616220179">
        <ele>297.6</ele>
        <time>2019-10-03T14:12:26Z</time>
      </trkpt>
      <trkpt lat="57.782343927844" lon="13.446988544177">
        <ele>298.4</ele>
        <time>2019-10-03T14:12:36Z</time>
      </trkpt>
      <trkpt lat="57.782346442414" lon="13.447114440315">
        <ele>298.6</ele>
        <time>2019-10-03T14:12:39Z</time>
      </trkpt>
      <trkpt lat="57.782360021092" lon="13.447335135742">
        <ele>300</ele>
        <time>2019-10-03T14:12:45Z</time>
      </trkpt>
      <trkpt lat="57.782350884821" lon="13.447418954742">
        <ele>301</ele>
        <time>2019-10-03T14:12:48Z</time>
      </trkpt>
      <trkpt lat="57.782336384134" lon="13.447505875045">
        <ele>302.2</ele>
        <time>2019-10-03T14:12:51Z</time>
      </trkpt>
      <trkpt lat="57.782319285058" lon="13.447635207762">
        <ele>303.2</ele>
        <time>2019-10-03T14:12:55Z</time>
      </trkpt>
      <trkpt lat="57.782318363049" lon="13.447704693713">
        <ele>303.8</ele>
        <time>2019-10-03T14:12:58Z</time>
      </trkpt>
      <trkpt lat="57.78237024701" lon="13.448043238654">
        <ele>302.4</ele>
        <time>2019-10-03T14:13:07Z</time>
      </trkpt>
      <trkpt lat="57.782444762101" lon="13.448363091958">
        <ele>303.2</ele>
        <time>2019-10-03T14:13:16Z</time>
      </trkpt>
      <trkpt lat="57.782456832037" lon="13.448448335881">
        <ele>304.4</ele>
        <time>2019-10-03T14:13:19Z</time>
      </trkpt>
      <trkpt lat="57.782445600291" lon="13.448527041922">
        <ele>305.8</ele>
        <time>2019-10-03T14:13:22Z</time>
      </trkpt>
      <trkpt lat="57.782431937794" lon="13.448709851161">
        <ele>307</ele>
        <time>2019-10-03T14:13:26Z</time>
      </trkpt>
      <trkpt lat="57.782411821234" lon="13.448752095937">
        <ele>307.6</ele>
        <time>2019-10-03T14:13:28Z</time>
      </trkpt>
      <trkpt lat="57.782376533435" lon="13.448754861964">
        <ele>308</ele>
        <time>2019-10-03T14:13:30Z</time>
      </trkpt>
      <trkpt lat="57.782344346939" lon="13.448742875847">
        <ele>308.4</ele>
        <time>2019-10-03T14:13:32Z</time>
      </trkpt>
      <trkpt lat="57.782265221803" lon="13.448435763031">
        <ele>308.4</ele>
        <time>2019-10-03T14:13:42Z</time>
      </trkpt>
      <trkpt lat="57.782135134715" lon="13.448180115081">
        <ele>307.8</ele>
        <time>2019-10-03T14:13:52Z</time>
      </trkpt>
      <trkpt lat="57.781951487286" lon="13.448029492338">
        <ele>309</ele>
        <time>2019-10-03T14:14:01Z</time>
      </trkpt>
      <trkpt lat="57.781929610527" lon="13.448022954456">
        <ele>309.2</ele>
        <time>2019-10-03T14:14:02Z</time>
      </trkpt>
      <trkpt lat="57.781814694678" lon="13.447921365828">
        <ele>309.4</ele>
        <time>2019-10-03T14:14:08Z</time>
      </trkpt>
      <trkpt lat="57.781711262032" lon="13.448022367723">
        <ele>309.4</ele>
        <time>2019-10-03T14:14:14Z</time>
      </trkpt>
      <trkpt lat="57.781631382525" lon="13.448069725458">
        <ele>307.8</ele>
        <time>2019-10-03T14:14:19Z</time>
      </trkpt>
      <trkpt lat="57.781560052556" lon="13.448168548059">
        <ele>306.8</ele>
        <time>2019-10-03T14:14:23Z</time>
      </trkpt>
      <trkpt lat="57.781501630713" lon="13.448270388144">
        <ele>306.2</ele>
        <time>2019-10-03T14:14:27Z</time>
      </trkpt>
      <trkpt lat="57.781468689846" lon="13.448273908542">
        <ele>305.6</ele>
        <time>2019-10-03T14:14:29Z</time>
      </trkpt>
      <trkpt lat="57.78138872652" lon="13.448225880255">
        <ele>304.2</ele>
        <time>2019-10-03T14:14:34Z</time>
      </trkpt>
      <trkpt lat="57.781339189491" lon="13.448185730954">
        <ele>303.2</ele>
        <time>2019-10-03T14:14:37Z</time>
      </trkpt>
      <trkpt lat="57.781321168406" lon="13.448189921904">
        <ele>302.8</ele>
        <time>2019-10-03T14:14:38Z</time>
      </trkpt>
      <trkpt lat="57.781135844597" lon="13.448184892764">
        <ele>301.6</ele>
        <time>2019-10-03T14:14:47Z</time>
      </trkpt>
      <trkpt lat="57.781103406644" lon="13.448179528348">
        <ele>301</ele>
        <time>2019-10-03T14:14:49Z</time>
      </trkpt>
      <trkpt lat="57.781026376983" lon="13.448142815626">
        <ele>300.4</ele>
        <time>2019-10-03T14:14:54Z</time>
      </trkpt>
      <trkpt lat="57.780961165801" lon="13.448095709348">
        <ele>299</ele>
        <time>2019-10-03T14:14:58Z</time>
      </trkpt>
      <trkpt lat="57.780850943816" lon="13.448037790419">
        <ele>298</ele>
        <time>2019-10-03T14:15:03Z</time>
      </trkpt>
      <trkpt lat="57.780658830668" lon="13.448016081298">
        <ele>298</ele>
        <time>2019-10-03T14:15:11Z</time>
      </trkpt>
      <trkpt lat="57.78057652041" lon="13.447996719109">
        <ele>297</ele>
        <time>2019-10-03T14:15:15Z</time>
      </trkpt>
      <trkpt lat="57.780467471891" lon="13.447950367202">
        <ele>295.8</ele>
        <time>2019-10-03T14:15:20Z</time>
      </trkpt>
      <trkpt lat="57.780329673455" lon="13.447889933703">
        <ele>294.6</ele>
        <time>2019-10-03T14:15:27Z</time>
      </trkpt>
      <trkpt lat="57.780272760354" lon="13.447928909538">
        <ele>293.8</ele>
        <time>2019-10-03T14:15:30Z</time>
      </trkpt>
      <trkpt lat="57.780258594943" lon="13.447961515129">
        <ele>293.6</ele>
        <time>2019-10-03T14:15:31Z</time>
      </trkpt>
      <trkpt lat="57.780253733441" lon="13.447997557299">
        <ele>293.6</ele>
        <time>2019-10-03T14:15:32Z</time>
      </trkpt>
      <trkpt lat="57.780250129224" lon="13.44828245808">
        <ele>293</ele>
        <time>2019-10-03T14:15:41Z</time>
      </trkpt>
      <trkpt lat="57.780199754005" lon="13.448371976772">
        <ele>292.4</ele>
        <time>2019-10-03T14:15:45Z</time>
      </trkpt>
      <trkpt lat="57.780161113446" lon="13.448425537113">
        <ele>291.4</ele>
        <time>2019-10-03T14:15:47Z</time>
      </trkpt>
      <trkpt lat="57.780032283643" lon="13.448704402926">
        <ele>290.6</ele>
        <time>2019-10-03T14:15:55Z</time>
      </trkpt>
      <trkpt lat="57.780006718848" lon="13.448771877221">
        <ele>290.4</ele>
        <time>2019-10-03T14:15:57Z</time>
      </trkpt>
      <trkpt lat="57.779965312262" lon="13.449122408279">
        <ele>289.2</ele>
        <time>2019-10-03T14:16:05Z</time>
      </trkpt>
      <trkpt lat="57.779943603141" lon="13.449487440024">
        <ele>287.8</ele>
        <time>2019-10-03T14:16:12Z</time>
      </trkpt>
      <trkpt lat="57.779950643937" lon="13.44984065329">
        <ele>287</ele>
        <time>2019-10-03T14:16:20Z</time>
      </trkpt>
      <trkpt lat="57.779950476299" lon="13.449881054048">
        <ele>286.8</ele>
        <time>2019-10-03T14:16:21Z</time>
      </trkpt>
      <trkpt lat="57.779949051376" lon="13.449945678497">
        <ele>286</ele>
        <time>2019-10-03T14:16:24Z</time>
      </trkpt>
      <trkpt lat="57.78002080044" lon="13.449916593304">
        <ele>286.6</ele>
        <time>2019-10-03T14:16:31Z</time>
      </trkpt>
      <trkpt lat="57.780149630243" lon="13.449979373735">
        <ele>287.8</ele>
        <time>2019-10-03T14:16:41Z</time>
      </trkpt>
      <trkpt lat="57.78021358414" lon="13.449959173356">
        <ele>289.4</ele>
        <time>2019-10-03T14:16:44Z</time>
      </trkpt>
      <trkpt lat="57.780276951304" lon="13.449932686552">
        <ele>290.8</ele>
        <time>2019-10-03T14:16:47Z</time>
      </trkpt>
      <trkpt lat="57.780337133346" lon="13.449912653811">
        <ele>291.8</ele>
        <time>2019-10-03T14:16:50Z</time>
      </trkpt>
      <trkpt lat="57.780370074213" lon="13.44992447229">
        <ele>293</ele>
        <time>2019-10-03T14:16:52Z</time>
      </trkpt>
      <trkpt lat="57.780424305106" lon="13.449909971603">
        <ele>294</ele>
        <time>2019-10-03T14:16:56Z</time>
      </trkpt>
      <trkpt lat="57.780449786082" lon="13.449955736777">
        <ele>294</ele>
        <time>2019-10-03T14:16:59Z</time>
      </trkpt>
      <trkpt lat="57.780476440524" lon="13.449998484467">
        <ele>294.2</ele>
        <time>2019-10-03T14:17:03Z</time>
      </trkpt>
      <trkpt lat="57.780513991436" lon="13.449985995436">
        <ele>295</ele>
        <time>2019-10-03T14:17:08Z</time>
      </trkpt>
      <trkpt lat="57.780575766039" lon="13.449934111475">
        <ele>296.2</ele>
        <time>2019-10-03T14:17:13Z</time>
      </trkpt>
      <trkpt lat="57.780585489043" lon="13.449930423439">
        <ele>296.2</ele>
        <time>2019-10-03T14:17:14Z</time>
      </trkpt>
      <trkpt lat="57.780599905911" lon="13.449922376815">
        <ele>296.2</ele>
        <time>2019-10-03T14:17:16Z</time>
      </trkpt>
      <trkpt lat="57.780617675539" lon="13.449911228888">
        <ele>296.2</ele>
        <time>2019-10-03T14:17:18Z</time>
      </trkpt>
      <trkpt lat="57.780648520931" lon="13.449871247225">
        <ele>297.4</ele>
        <time>2019-10-03T14:17:23Z</time>
      </trkpt>
      <trkpt lat="57.780695124295" lon="13.450005273806">
        <ele>298</ele>
        <time>2019-10-03T14:17:34Z</time>
      </trkpt>
      <trkpt lat="57.780720269995" lon="13.450082135829">
        <ele>298</ele>
        <time>2019-10-03T14:17:39Z</time>
      </trkpt>
      <trkpt lat="57.780731334103" lon="13.450117591266">
        <ele>298.2</ele>
        <time>2019-10-03T14:17:41Z</time>
      </trkpt>
      <trkpt lat="57.780761844219" lon="13.450193698918">
        <ele>298.2</ele>
        <time>2019-10-03T14:17:45Z</time>
      </trkpt>
      <trkpt lat="57.780772321594" lon="13.450235692237">
        <ele>298.6</ele>
        <time>2019-10-03T14:17:47Z</time>
      </trkpt>
      <trkpt lat="57.780835185844" lon="13.450502404295">
        <ele>298.2</ele>
        <time>2019-10-03T14:17:57Z</time>
      </trkpt>
      <trkpt lat="57.780850440902" lon="13.450568537486">
        <ele>297.4</ele>
        <time>2019-10-03T14:17:59Z</time>
      </trkpt>
      <trkpt lat="57.78086737234" lon="13.450773223484">
        <ele>296.8</ele>
        <time>2019-10-03T14:18:04Z</time>
      </trkpt>
      <trkpt lat="57.780928895486" lon="13.450905070771">
        <ele>297.8</ele>
        <time>2019-10-03T14:18:09Z</time>
      </trkpt>
      <trkpt lat="57.780971140262" lon="13.450892246464">
        <ele>298.6</ele>
        <time>2019-10-03T14:18:11Z</time>
      </trkpt>
      <trkpt lat="57.78100148274" lon="13.45087162699">
        <ele>299.8</ele>
        <time>2019-10-03T14:18:13Z</time>
      </trkpt>
      <trkpt lat="57.781043727516" lon="13.450812031681">
        <ele>300.8</ele>
        <time>2019-10-03T14:18:16Z</time>
      </trkpt>
      <trkpt lat="57.781068370302" lon="13.450729637604">
        <ele>302</ele>
        <time>2019-10-03T14:18:19Z</time>
      </trkpt>
      <trkpt lat="57.781089325052" lon="13.450578009033">
        <ele>302.8</ele>
        <time>2019-10-03T14:18:23Z</time>
      </trkpt>
      <trkpt lat="57.781100892074" lon="13.450547750374">
        <ele>303.2</ele>
        <time>2019-10-03T14:18:24Z</time>
      </trkpt>
      <trkpt lat="57.781110195983" lon="13.4505271309">
        <ele>303.6</ele>
        <time>2019-10-03T14:18:25Z</time>
      </trkpt>
      <trkpt lat="57.781130731638" lon="13.450501817562">
        <ele>304.4</ele>
        <time>2019-10-03T14:18:27Z</time>
      </trkpt>
      <trkpt lat="57.781147830714" lon="13.450492932748">
        <ele>304.6</ele>
        <time>2019-10-03T14:18:28Z</time>
      </trkpt>
      <trkpt lat="57.781200552865" lon="13.450422943883">
        <ele>305.8</ele>
        <time>2019-10-03T14:18:32Z</time>
      </trkpt>
      <trkpt lat="57.781293256679" lon="13.450344656937">
        <ele>306.8</ele>
        <time>2019-10-03T14:18:37Z</time>
      </trkpt>
      <trkpt lat="57.781418733722" lon="13.450312889536">
        <ele>308</ele>
        <time>2019-10-03T14:18:44Z</time>
      </trkpt>
      <trkpt lat="57.781460391765" lon="13.450344321661">
        <ele>308.4</ele>
        <time>2019-10-03T14:18:47Z</time>
      </trkpt>
      <trkpt lat="57.781505318749" lon="13.450455298017">
        <ele>309</ele>
        <time>2019-10-03T14:18:52Z</time>
      </trkpt>
      <trkpt lat="57.781620737512" lon="13.450463931374">
        <ele>309.6</ele>
        <time>2019-10-03T14:19:00Z</time>
      </trkpt>
      <trkpt lat="57.78167874026" lon="13.45043325362">
        <ele>310.2</ele>
        <time>2019-10-03T14:19:04Z</time>
      </trkpt>
      <trkpt lat="57.781780580345" lon="13.450331245897">
        <ele>311</ele>
        <time>2019-10-03T14:19:14Z</time>
      </trkpt>
      <trkpt lat="57.781790973901" lon="13.450332922277">
        <ele>311.2</ele>
        <time>2019-10-03T14:19:15Z</time>
      </trkpt>
      <trkpt lat="57.78195031382" lon="13.450269890389">
        <ele>312.2</ele>
        <time>2019-10-03T14:19:27Z</time>
      </trkpt>
      <trkpt lat="57.782070845542" lon="13.450285145447">
        <ele>313.2</ele>
        <time>2019-10-03T14:19:37Z</time>
      </trkpt>
      <trkpt lat="57.782128513014" lon="13.450279361936">
        <ele>314.2</ele>
        <time>2019-10-03T14:19:42Z</time>
      </trkpt>
      <trkpt lat="57.782176289844" lon="13.450242397757">
        <ele>315.4</ele>
        <time>2019-10-03T14:19:46Z</time>
      </trkpt>
      <trkpt lat="57.782212918747" lon="13.450237536255">
        <ele>316.6</ele>
        <time>2019-10-03T14:19:50Z</time>
      </trkpt>
      <trkpt lat="57.782298414127" lon="13.450271315312">
        <ele>316.4</ele>
        <time>2019-10-03T14:19:59Z</time>
      </trkpt>
      <trkpt lat="57.782322386361" lon="13.450468038505">
        <ele>317.6</ele>
        <time>2019-10-03T14:20:05Z</time>
      </trkpt>
      <trkpt lat="57.782418526754" lon="13.450778168805">
        <ele>318</ele>
        <time>2019-10-03T14:20:14Z</time>
      </trkpt>
      <trkpt lat="57.782456161485" lon="13.45091437468">
        <ele>318.2</ele>
        <time>2019-10-03T14:20:17Z</time>
      </trkpt>
      <trkpt lat="57.782434620002" lon="13.451086958001">
        <ele>318.6</ele>
        <time>2019-10-03T14:20:22Z</time>
      </trkpt>
      <trkpt lat="57.782373013037" lon="13.451144541654">
        <ele>317.4</ele>
        <time>2019-10-03T14:20:27Z</time>
      </trkpt>
      <trkpt lat="57.782353650848" lon="13.451167424241">
        <ele>316.2</ele>
        <time>2019-10-03T14:20:29Z</time>
      </trkpt>
      <trkpt lat="57.782343341111" lon="13.45118343367">
        <ele>315.6</ele>
        <time>2019-10-03T14:20:30Z</time>
      </trkpt>
      <trkpt lat="57.782332696098" lon="13.451216877451">
        <ele>314.8</ele>
        <time>2019-10-03T14:20:31Z</time>
      </trkpt>
      <trkpt lat="57.782312747176" lon="13.451277562407">
        <ele>313.6</ele>
        <time>2019-10-03T14:20:33Z</time>
      </trkpt>
      <trkpt lat="57.782289445494" lon="13.451362471054">
        <ele>312.4</ele>
        <time>2019-10-03T14:20:36Z</time>
      </trkpt>
      <trkpt lat="57.782265640898" lon="13.451411337531">
        <ele>311.4</ele>
        <time>2019-10-03T14:20:38Z</time>
      </trkpt>
      <trkpt lat="57.782221300647" lon="13.45148182931">
        <ele>310</ele>
        <time>2019-10-03T14:20:41Z</time>
      </trkpt>
      <trkpt lat="57.782193221282" lon="13.45155307546">
        <ele>309</ele>
        <time>2019-10-03T14:20:43Z</time>
      </trkpt>
      <trkpt lat="57.782148461936" lon="13.451631781501">
        <ele>307.8</ele>
        <time>2019-10-03T14:20:46Z</time>
      </trkpt>
      <trkpt lat="57.782120214933" lon="13.451681989082">
        <ele>306.8</ele>
        <time>2019-10-03T14:20:48Z</time>
      </trkpt>
      <trkpt lat="57.782073443931" lon="13.451752229404">
        <ele>305.2</ele>
        <time>2019-10-03T14:20:51Z</time>
      </trkpt>
      <trkpt lat="57.782027259662" lon="13.451802688442">
        <ele>303.8</ele>
        <time>2019-10-03T14:20:54Z</time>
      </trkpt>
      <trkpt lat="57.781992474777" lon="13.451862283751">
        <ele>302.6</ele>
        <time>2019-10-03T14:20:56Z</time>
      </trkpt>
      <trkpt lat="57.781926928319" lon="13.451942498534">
        <ele>301.4</ele>
        <time>2019-10-03T14:21:00Z</time>
      </trkpt>
      <trkpt lat="57.781828357175" lon="13.452008044992">
        <ele>300.2</ele>
        <time>2019-10-03T14:21:05Z</time>
      </trkpt>
      <trkpt lat="57.78164521266" lon="13.451972421917">
        <ele>299.2</ele>
        <time>2019-10-03T14:21:13Z</time>
      </trkpt>
      <trkpt lat="57.781583438057" lon="13.451956161031">
        <ele>298.8</ele>
        <time>2019-10-03T14:21:16Z</time>
      </trkpt>
      <trkpt lat="57.781542366747" lon="13.451967560415">
        <ele>297.4</ele>
        <time>2019-10-03T14:21:18Z</time>
      </trkpt>
      <trkpt lat="57.781494589917" lon="13.451977115781">
        <ele>296.4</ele>
        <time>2019-10-03T14:21:20Z</time>
      </trkpt>
      <trkpt lat="57.78137950643" lon="13.451977534876">
        <ele>295.2</ele>
        <time>2019-10-03T14:21:25Z</time>
      </trkpt>
      <trkpt lat="57.781358467861" lon="13.451993041391">
        <ele>295</ele>
        <time>2019-10-03T14:21:26Z</time>
      </trkpt>
      <trkpt lat="57.781276576698" lon="13.45207442964">
        <ele>294.2</ele>
        <time>2019-10-03T14:21:30Z</time>
      </trkpt>
      <trkpt lat="57.781262578925" lon="13.452112734923">
        <ele>294</ele>
        <time>2019-10-03T14:21:31Z</time>
      </trkpt>
      <trkpt lat="57.781243635831" lon="13.452148860912">
        <ele>293.8</ele>
        <time>2019-10-03T14:21:32Z</time>
      </trkpt>
      <trkpt lat="57.781175239527" lon="13.452384392302">
        <ele>292.8</ele>
        <time>2019-10-03T14:21:38Z</time>
      </trkpt>
      <trkpt lat="57.781121846824" lon="13.452523028928">
        <ele>291.8</ele>
        <time>2019-10-03T14:21:42Z</time>
      </trkpt>
      <trkpt lat="57.781071555424" lon="13.452624114642">
        <ele>290.6</ele>
        <time>2019-10-03T14:21:45Z</time>
      </trkpt>
      <trkpt lat="57.780972062271" lon="13.452782867828">
        <ele>289.6</ele>
        <time>2019-10-03T14:21:50Z</time>
      </trkpt>
      <trkpt lat="57.780920765043" lon="13.452925360128">
        <ele>288.6</ele>
        <time>2019-10-03T14:21:54Z</time>
      </trkpt>
      <trkpt lat="57.780893859144" lon="13.452952768941">
        <ele>288.4</ele>
        <time>2019-10-03T14:21:55Z</time>
      </trkpt>
      <trkpt lat="57.7808371975" lon="13.45297883665">
        <ele>287</ele>
        <time>2019-10-03T14:21:58Z</time>
      </trkpt>
      <trkpt lat="57.780823199727" lon="13.452998366477">
        <ele>286.8</ele>
        <time>2019-10-03T14:21:59Z</time>
      </trkpt>
      <trkpt lat="57.780783888616" lon="13.453106744444">
        <ele>286.2</ele>
        <time>2019-10-03T14:22:02Z</time>
      </trkpt>
      <trkpt lat="57.780780619675" lon="13.453152509618">
        <ele>286</ele>
        <time>2019-10-03T14:22:03Z</time>
      </trkpt>
      <trkpt lat="57.780760335477" lon="13.45328729057">
        <ele>285.8</ele>
        <time>2019-10-03T14:22:06Z</time>
      </trkpt>
      <trkpt lat="57.780671487337" lon="13.453515529707">
        <ele>284.6</ele>
        <time>2019-10-03T14:22:12Z</time>
      </trkpt>
      <trkpt lat="57.780645335809" lon="13.453587530228">
        <ele>283.6</ele>
        <time>2019-10-03T14:22:14Z</time>
      </trkpt>
      <trkpt lat="57.780613149313" lon="13.453669672848">
        <ele>282.4</ele>
        <time>2019-10-03T14:22:16Z</time>
      </trkpt>
      <trkpt lat="57.780572078003" lon="13.453754413857">
        <ele>282.2</ele>
        <time>2019-10-03T14:22:18Z</time>
      </trkpt>
      <trkpt lat="57.780448528797" lon="13.454028501987">
        <ele>281.6</ele>
        <time>2019-10-03T14:22:25Z</time>
      </trkpt>
      <trkpt lat="57.780442577648" lon="13.454060437026">
        <ele>281.4</ele>
        <time>2019-10-03T14:22:26Z</time>
      </trkpt>
      <trkpt lat="57.780415671749" lon="13.45419505034">
        <ele>280</ele>
        <time>2019-10-03T14:22:30Z</time>
      </trkpt>
      <trkpt lat="57.780395722827" lon="13.454464360787">
        <ele>279</ele>
        <time>2019-10-03T14:22:36Z</time>
      </trkpt>
      <trkpt lat="57.780402679804" lon="13.454626466733">
        <ele>277.6</ele>
        <time>2019-10-03T14:22:40Z</time>
      </trkpt>
      <trkpt lat="57.780406954573" lon="13.454845737237">
        <ele>276.4</ele>
        <time>2019-10-03T14:22:44Z</time>
      </trkpt>
      <trkpt lat="57.780480296198" lon="13.455071629442">
        <ele>277.6</ele>
        <time>2019-10-03T14:22:50Z</time>
      </trkpt>
      <trkpt lat="57.780661848152" lon="13.455136672986">
        <ele>277.8</ele>
        <time>2019-10-03T14:22:59Z</time>
      </trkpt>
      <trkpt lat="57.780722784565" lon="13.455276650716">
        <ele>278.4</ele>
        <time>2019-10-03T14:23:05Z</time>
      </trkpt>
      <trkpt lat="57.780785062082" lon="13.455354015653">
        <ele>278.6</ele>
        <time>2019-10-03T14:23:10Z</time>
      </trkpt>
      <trkpt lat="57.780824792288" lon="13.455370863272">
        <ele>279.2</ele>
        <time>2019-10-03T14:23:12Z</time>
      </trkpt>
      <trkpt lat="57.781008691174" lon="13.455336329844">
        <ele>279.6</ele>
        <time>2019-10-03T14:23:19Z</time>
      </trkpt>
      <trkpt lat="57.781191248956" lon="13.455253181396">
        <ele>280</ele>
        <time>2019-10-03T14:23:27Z</time>
      </trkpt>
      <trkpt lat="57.781279091268" lon="13.455213786466">
        <ele>281</ele>
        <time>2019-10-03T14:23:31Z</time>
      </trkpt>
      <trkpt lat="57.781433904961" lon="13.455099122074">
        <ele>282</ele>
        <time>2019-10-03T14:23:38Z</time>
      </trkpt>
      <trkpt lat="57.781445471983" lon="13.455075736573">
        <ele>282.2</ele>
        <time>2019-10-03T14:23:39Z</time>
      </trkpt>
      <trkpt lat="57.781447232182" lon="13.45494187763">
        <ele>283.2</ele>
        <time>2019-10-03T14:23:43Z</time>
      </trkpt>
      <trkpt lat="57.781446813087" lon="13.454875576801">
        <ele>283.4</ele>
        <time>2019-10-03T14:23:46Z</time>
      </trkpt>
      <trkpt lat="57.781442035404" lon="13.454745824989">
        <ele>284.2</ele>
        <time>2019-10-03T14:23:53Z</time>
      </trkpt>
      <trkpt lat="57.781455027349" lon="13.454630741502">
        <ele>285.4</ele>
        <time>2019-10-03T14:23:59Z</time>
      </trkpt>
      <trkpt lat="57.781472294063" lon="13.454527560313">
        <ele>286.4</ele>
        <time>2019-10-03T14:24:05Z</time>
      </trkpt>
      <trkpt lat="57.781470450045" lon="13.454509455409">
        <ele>286.4</ele>
        <time>2019-10-03T14:24:06Z</time>
      </trkpt>
      <trkpt lat="57.781444130879" lon="13.454382637262">
        <ele>287.6</ele>
        <time>2019-10-03T14:24:13Z</time>
      </trkpt>
      <trkpt lat="57.781484699275" lon="13.454090779504">
        <ele>288.6</ele>
        <time>2019-10-03T14:24:29Z</time>
      </trkpt>
      <trkpt lat="57.781464582715" lon="13.453957423475">
        <ele>289</ele>
        <time>2019-10-03T14:24:36Z</time>
      </trkpt>
      <trkpt lat="57.781453518607" lon="13.453870503172">
        <ele>289.8</ele>
        <time>2019-10-03T14:24:40Z</time>
      </trkpt>
      <trkpt lat="57.781505067292" lon="13.453674282893">
        <ele>290.8</ele>
        <time>2019-10-03T14:24:51Z</time>
      </trkpt>
      <trkpt lat="57.781569356465" lon="13.45356808422">
        <ele>292</ele>
        <time>2019-10-03T14:24:59Z</time>
      </trkpt>
      <trkpt lat="57.781643955375" lon="13.453502621581">
        <ele>293</ele>
        <time>2019-10-03T14:25:07Z</time>
      </trkpt>
      <trkpt lat="57.781691983662" lon="13.453456688769">
        <ele>294.2</ele>
        <time>2019-10-03T14:25:13Z</time>
      </trkpt>
      <trkpt lat="57.78187571491" lon="13.453523492512">
        <ele>295.4</ele>
        <time>2019-10-03T14:25:29Z</time>
      </trkpt>
      <trkpt lat="57.78195031382" lon="13.453406648826">
        <ele>296.6</ele>
        <time>2019-10-03T14:25:39Z</time>
      </trkpt>
      <trkpt lat="57.781992893872" lon="13.453269269485">
        <ele>297.8</ele>
        <time>2019-10-03T14:25:47Z</time>
      </trkpt>
      <trkpt lat="57.782043604367" lon="13.453178744965">
        <ele>298.8</ele>
        <time>2019-10-03T14:25:53Z</time>
      </trkpt>
      <trkpt lat="57.782115604888" lon="13.453061230727">
        <ele>299.8</ele>
        <time>2019-10-03T14:26:02Z</time>
      </trkpt>
      <trkpt lat="57.782213002566" lon="13.453072546292">
        <ele>300.8</ele>
        <time>2019-10-03T14:26:10Z</time>
      </trkpt>
      <trkpt lat="57.782324481836" lon="13.452953607131">
        <ele>301.8</ele>
        <time>2019-10-03T14:26:22Z</time>
      </trkpt>
      <trkpt lat="57.782456915856" lon="13.452939860815">
        <ele>302.8</ele>
        <time>2019-10-03T14:26:33Z</time>
      </trkpt>
      <trkpt lat="57.782589266057" lon="13.45298386579">
        <ele>303.8</ele>
        <time>2019-10-03T14:26:43Z</time>
      </trkpt>
      <trkpt lat="57.782677192188" lon="13.452952098389">
        <ele>305.4</ele>
        <time>2019-10-03T14:26:48Z</time>
      </trkpt>
      <trkpt lat="57.782740224076" lon="13.452980848306">
        <ele>306.2</ele>
        <time>2019-10-03T14:26:52Z</time>
      </trkpt>
      <trkpt lat="57.782805351439" lon="13.453078832717">
        <ele>306.4</ele>
        <time>2019-10-03T14:26:56Z</time>
      </trkpt>
      <trkpt lat="57.78282286961" lon="13.453103140227">
        <ele>306.6</ele>
        <time>2019-10-03T14:26:57Z</time>
      </trkpt>
      <trkpt lat="57.782850697518" lon="13.453184109381">
        <ele>306.8</ele>
        <time>2019-10-03T14:27:00Z</time>
      </trkpt>
      <trkpt lat="57.782926637532" lon="13.45323699917">
        <ele>307.6</ele>
        <time>2019-10-03T14:27:04Z</time>
      </trkpt>
      <trkpt lat="57.783024705762" lon="13.453273292797">
        <ele>309</ele>
        <time>2019-10-03T14:27:09Z</time>
      </trkpt>
      <trkpt lat="57.783070554755" lon="13.45330405437">
        <ele>310.4</ele>
        <time>2019-10-03T14:27:12Z</time>
      </trkpt>
      <trkpt lat="57.783101819242" lon="13.453330289717">
        <ele>311.2</ele>
        <time>2019-10-03T14:27:14Z</time>
      </trkpt>
      <trkpt lat="57.78311958887" lon="13.453322829826">
        <ele>311.8</ele>
        <time>2019-10-03T14:27:15Z</time>
      </trkpt>
      <trkpt lat="57.783171975745" lon="13.453281004145">
        <ele>313</ele>
        <time>2019-10-03T14:27:19Z</time>
      </trkpt>
      <trkpt lat="57.783198714006" lon="13.453273628073">
        <ele>314</ele>
        <time>2019-10-03T14:27:23Z</time>
      </trkpt>
      <trkpt lat="57.783207263544" lon="13.453271867874">
        <ele>314.4</ele>
        <time>2019-10-03T14:27:24Z</time>
      </trkpt>
      <trkpt lat="57.783319664823" lon="13.453275220634">
        <ele>314</ele>
        <time>2019-10-03T14:27:39Z</time>
      </trkpt>
      <trkpt lat="57.783430724998" lon="13.453440427883">
        <ele>314.4</ele>
        <time>2019-10-03T14:27:46Z</time>
      </trkpt>
      <trkpt lat="57.783487805737" lon="13.453616950697">
        <ele>313</ele>
        <time>2019-10-03T14:27:51Z</time>
      </trkpt>
      <trkpt lat="57.783560392991" lon="13.453940072942">
        <ele>312</ele>
        <time>2019-10-03T14:28:00Z</time>
      </trkpt>
      <trkpt lat="57.783569445443" lon="13.453966978841">
        <ele>311.8</ele>
        <time>2019-10-03T14:28:01Z</time>
      </trkpt>
      <trkpt lat="57.783572127651" lon="13.45399304655">
        <ele>311.4</ele>
        <time>2019-10-03T14:28:02Z</time>
      </trkpt>
      <trkpt lat="57.783583191759" lon="13.454084325441">
        <ele>310.2</ele>
        <time>2019-10-03T14:28:05Z</time>
      </trkpt>
      <trkpt lat="57.783582521207" lon="13.454144339845">
        <ele>309.4</ele>
        <time>2019-10-03T14:28:07Z</time>
      </trkpt>
      <trkpt lat="57.783572798203" lon="13.454167222432">
        <ele>308.8</ele>
        <time>2019-10-03T14:28:08Z</time>
      </trkpt>
      <trkpt lat="57.783550167073" lon="13.454217094737">
        <ele>307.6</ele>
        <time>2019-10-03T14:28:11Z</time>
      </trkpt>
      <trkpt lat="57.783513873446" lon="13.454457906724">
        <ele>306.6</ele>
        <time>2019-10-03T14:28:17Z</time>
      </trkpt>
      <trkpt lat="57.783508257573" lon="13.4545001515">
        <ele>306.4</ele>
        <time>2019-10-03T14:28:18Z</time>
      </trkpt>
      <trkpt lat="57.783444471314" lon="13.454711626837">
        <ele>305.4</ele>
        <time>2019-10-03T14:28:24Z</time>
      </trkpt>
      <trkpt lat="57.783431898464" lon="13.454730402293">
        <ele>305</ele>
        <time>2019-10-03T14:28:25Z</time>
      </trkpt>
      <trkpt lat="57.783394431371" lon="13.454774155811">
        <ele>304</ele>
        <time>2019-10-03T14:28:28Z</time>
      </trkpt>
      <trkpt lat="57.783383451082" lon="13.45481279637">
        <ele>303.6</ele>
        <time>2019-10-03T14:28:29Z</time>
      </trkpt>
      <trkpt lat="57.783369788585" lon="13.45488739528">
        <ele>302.8</ele>
        <time>2019-10-03T14:28:31Z</time>
      </trkpt>
      <trkpt lat="57.783313462217" lon="13.454964676398">
        <ele>301.2</ele>
        <time>2019-10-03T14:28:35Z</time>
      </trkpt>
      <trkpt lat="57.783304996498" lon="13.454997281989">
        <ele>300.6</ele>
        <time>2019-10-03T14:28:36Z</time>
      </trkpt>
      <trkpt lat="57.783299632082" lon="13.455034749082">
        <ele>300</ele>
        <time>2019-10-03T14:28:37Z</time>
      </trkpt>
      <trkpt lat="57.783286304861" lon="13.45514388142">
        <ele>299.4</ele>
        <time>2019-10-03T14:28:40Z</time>
      </trkpt>
      <trkpt lat="57.783263003179" lon="13.45519249644">
        <ele>298.8</ele>
        <time>2019-10-03T14:28:42Z</time>
      </trkpt>
      <trkpt lat="57.783154709031" lon="13.455396260429">
        <ele>297.8</ele>
        <time>2019-10-03T14:28:51Z</time>
      </trkpt>
      <trkpt lat="57.783112715712" lon="13.455556522357">
        <ele>296.6</ele>
        <time>2019-10-03T14:28:55Z</time>
      </trkpt>
      <trkpt lat="57.783041888657" lon="13.455661631383">
        <ele>296</ele>
        <time>2019-10-03T14:29:00Z</time>
      </trkpt>
      <trkpt lat="57.783023532296" lon="13.455787359883">
        <ele>295.4</ele>
        <time>2019-10-03T14:29:03Z</time>
      </trkpt>
      <trkpt lat="57.783001068804" lon="13.455854247445">
        <ele>295.2</ele>
        <time>2019-10-03T14:29:05Z</time>
      </trkpt>
      <trkpt lat="57.782983718271" lon="13.455923230482">
        <ele>295.6</ele>
        <time>2019-10-03T14:29:08Z</time>
      </trkpt>
      <trkpt lat="57.782941557314" lon="13.456064633135">
        <ele>295.4</ele>
        <time>2019-10-03T14:29:13Z</time>
      </trkpt>
      <trkpt lat="57.782937617821" lon="13.456226403805">
        <ele>296.8</ele>
        <time>2019-10-03T14:29:17Z</time>
      </trkpt>
      <trkpt lat="57.78295865639" lon="13.456387001009">
        <ele>297.8</ele>
        <time>2019-10-03T14:29:21Z</time>
      </trkpt>
      <trkpt lat="57.782978689131" lon="13.456616245974">
        <ele>296.8</ele>
        <time>2019-10-03T14:29:27Z</time>
      </trkpt>
      <trkpt lat="57.782989837058" lon="13.456734263126">
        <ele>295.4</ele>
        <time>2019-10-03T14:29:31Z</time>
      </trkpt>
      <trkpt lat="57.782999308605" lon="13.456818417402">
        <ele>294</ele>
        <time>2019-10-03T14:29:34Z</time>
      </trkpt>
      <trkpt lat="57.783010288894" lon="13.456933668527">
        <ele>292.8</ele>
        <time>2019-10-03T14:29:37Z</time>
      </trkpt>
      <trkpt lat="57.783039877001" lon="13.457113711739">
        <ele>293.2</ele>
        <time>2019-10-03T14:29:42Z</time>
      </trkpt>
      <trkpt lat="57.783092515333" lon="13.457125614037">
        <ele>294</ele>
        <time>2019-10-03T14:29:45Z</time>
      </trkpt>
      <trkpt lat="57.783135765937" lon="13.45715637561">
        <ele>295</ele>
        <time>2019-10-03T14:29:48Z</time>
      </trkpt>
      <trkpt lat="57.783212041227" lon="13.457191998685">
        <ele>296.2</ele>
        <time>2019-10-03T14:29:52Z</time>
      </trkpt>
      <trkpt lat="57.783279264065" lon="13.457134917946">
        <ele>297.6</ele>
        <time>2019-10-03T14:29:56Z</time>
      </trkpt>
      <trkpt lat="57.783394850466" lon="13.457050344575">
        <ele>298.6</ele>
        <time>2019-10-03T14:30:02Z</time>
      </trkpt>
      <trkpt lat="57.783449416635" lon="13.457033077861">
        <ele>299</ele>
        <time>2019-10-03T14:30:05Z</time>
      </trkpt>
      <trkpt lat="57.783506078279" lon="13.457045063978">
        <ele>298.6</ele>
        <time>2019-10-03T14:30:10Z</time>
      </trkpt>
      <trkpt lat="57.78360406269" lon="13.457042297951">
        <ele>297.4</ele>
        <time>2019-10-03T14:30:17Z</time>
      </trkpt>
      <trkpt lat="57.783704813128" lon="13.457075238818">
        <ele>296.2</ele>
        <time>2019-10-03T14:30:25Z</time>
      </trkpt>
      <trkpt lat="57.783754182519" lon="13.457101977079">
        <ele>295.2</ele>
        <time>2019-10-03T14:30:31Z</time>
      </trkpt>
      <trkpt lat="57.783790559965" lon="13.457167020623">
        <ele>294</ele>
        <time>2019-10-03T14:30:36Z</time>
      </trkpt>
      <trkpt lat="57.783850071455" lon="13.457349410767">
        <ele>293</ele>
        <time>2019-10-03T14:30:43Z</time>
      </trkpt>
      <trkpt lat="57.783926179107" lon="13.457577901361">
        <ele>294.2</ele>
        <time>2019-10-03T14:30:50Z</time>
      </trkpt>
      <trkpt lat="57.784050315046" lon="13.457744617352">
        <ele>293.4</ele>
        <time>2019-10-03T14:30:59Z</time>
      </trkpt>
      <trkpt lat="57.784055260367" lon="13.457779402237">
        <ele>293</ele>
        <time>2019-10-03T14:31:00Z</time>
      </trkpt>
      <trkpt lat="57.784142013032" lon="13.458119875015">
        <ele>293.4</ele>
        <time>2019-10-03T14:31:09Z</time>
      </trkpt>
      <trkpt lat="57.784218539779" lon="13.458342246822">
        <ele>293.6</ele>
        <time>2019-10-03T14:31:15Z</time>
      </trkpt>
      <trkpt lat="57.784321050416" lon="13.458325483022">
        <ele>292</ele>
        <time>2019-10-03T14:31:19Z</time>
      </trkpt>
      <trkpt lat="57.784475361195" lon="13.458150133674">
        <ele>292.2</ele>
        <time>2019-10-03T14:31:25Z</time>
      </trkpt>
      <trkpt lat="57.784653560389" lon="13.458152648244">
        <ele>291.8</ele>
        <time>2019-10-03T14:31:36Z</time>
      </trkpt>
      <trkpt lat="57.784653728027" lon="13.458197575228">
        <ele>291.6</ele>
        <time>2019-10-03T14:31:37Z</time>
      </trkpt>
      <trkpt lat="57.784724471263" lon="13.458454648101">
        <ele>290.8</ele>
        <time>2019-10-03T14:31:42Z</time>
      </trkpt>
      <trkpt lat="57.78478004326" lon="13.458539556748">
        <ele>289.6</ele>
        <time>2019-10-03T14:31:45Z</time>
      </trkpt>
      <trkpt lat="57.784836621085" lon="13.458594039098">
        <ele>288.4</ele>
        <time>2019-10-03T14:31:48Z</time>
      </trkpt>
      <trkpt lat="57.784881715707" lon="13.458650281647">
        <ele>287</ele>
        <time>2019-10-03T14:31:51Z</time>
      </trkpt>
      <trkpt lat="57.784934186401" lon="13.458743488375">
        <ele>285.8</ele>
        <time>2019-10-03T14:31:54Z</time>
      </trkpt>
      <trkpt lat="57.785110206301" lon="13.458950437486">
        <ele>284.8</ele>
        <time>2019-10-03T14:32:00Z</time>
      </trkpt>
      <trkpt lat="57.785203245391" lon="13.459200888658">
        <ele>283.6</ele>
        <time>2019-10-03T14:32:07Z</time>
      </trkpt>
      <trkpt lat="57.78522596034" lon="13.459269620238">
        <ele>282.6</ele>
        <time>2019-10-03T14:32:09Z</time>
      </trkpt>
      <trkpt lat="57.785230821842" lon="13.459388391761">
        <ele>281.4</ele>
        <time>2019-10-03T14:32:13Z</time>
      </trkpt>
      <trkpt lat="57.785233671688" lon="13.459435078944">
        <ele>281</ele>
        <time>2019-10-03T14:32:15Z</time>
      </trkpt>
      <trkpt lat="57.785251189859" lon="13.45953432064">
        <ele>280.4</ele>
        <time>2019-10-03T14:32:18Z</time>
      </trkpt>
      <trkpt lat="57.785257392465" lon="13.459721823743">
        <ele>279</ele>
        <time>2019-10-03T14:32:24Z</time>
      </trkpt>
      <trkpt lat="57.785231660032" lon="13.459793153712">
        <ele>278.2</ele>
        <time>2019-10-03T14:32:28Z</time>
      </trkpt>
      <trkpt lat="57.785154546552" lon="13.459731546747">
        <ele>278.8</ele>
        <time>2019-10-03T14:32:34Z</time>
      </trkpt>
      <trkpt lat="57.785064022032" lon="13.459722578114">
        <ele>278</ele>
        <time>2019-10-03T14:32:40Z</time>
      </trkpt>
      <trkpt lat="57.785043151101" lon="13.45971536968">
        <ele>278</ele>
        <time>2019-10-03T14:32:41Z</time>
      </trkpt>
      <trkpt lat="57.784971569675" lon="13.459716878422">
        <ele>279</ele>
        <time>2019-10-03T14:32:45Z</time>
      </trkpt>
      <trkpt lat="57.784940724283" lon="13.45976063194">
        <ele>278.8</ele>
        <time>2019-10-03T14:32:49Z</time>
      </trkpt>
      <trkpt lat="57.784921781189" lon="13.45977991031">
        <ele>278.6</ele>
        <time>2019-10-03T14:32:51Z</time>
      </trkpt>
      <trkpt lat="57.784878865861" lon="13.459841601094">
        <ele>277.8</ele>
        <time>2019-10-03T14:32:55Z</time>
      </trkpt>
      <trkpt lat="57.784870986875" lon="13.459865489509">
        <ele>277.4</ele>
        <time>2019-10-03T14:32:56Z</time>
      </trkpt>
      <trkpt lat="57.784858497844" lon="13.459927347931">
        <ele>276.8</ele>
        <time>2019-10-03T14:32:58Z</time>
      </trkpt>
      <trkpt lat="57.784864113717" lon="13.46030545544">
        <ele>277.4</ele>
        <time>2019-10-03T14:33:07Z</time>
      </trkpt>
      <trkpt lat="57.784863946079" lon="13.460366559491">
        <ele>278</ele>
        <time>2019-10-03T14:33:09Z</time>
      </trkpt>
      <trkpt lat="57.784858749301" lon="13.460383574748">
        <ele>278.4</ele>
        <time>2019-10-03T14:33:10Z</time>
      </trkpt>
      <trkpt lat="57.7848437457" lon="13.460385837861">
        <ele>279.2</ele>
        <time>2019-10-03T14:33:12Z</time>
      </trkpt>
      <trkpt lat="57.784818516181" lon="13.46038759806">
        <ele>280</ele>
        <time>2019-10-03T14:33:14Z</time>
      </trkpt>
      <trkpt lat="57.784810301919" lon="13.460371085717">
        <ele>280.4</ele>
        <time>2019-10-03T14:33:15Z</time>
      </trkpt>
      <trkpt lat="57.784762608908" lon="13.460347113483">
        <ele>280.6</ele>
        <time>2019-10-03T14:33:20Z</time>
      </trkpt>
      <trkpt lat="57.784711982232" lon="13.460308640562">
        <ele>279.2</ele>
        <time>2019-10-03T14:33:23Z</time>
      </trkpt>
      <trkpt lat="57.784536297608" lon="13.460157011991">
        <ele>279.2</ele>
        <time>2019-10-03T14:33:32Z</time>
      </trkpt>
      <trkpt lat="57.784501261266" lon="13.460149133005">
        <ele>279.4</ele>
        <time>2019-10-03T14:33:34Z</time>
      </trkpt>
      <trkpt lat="57.784449964038" lon="13.460232365272">
        <ele>279.6</ele>
        <time>2019-10-03T14:33:38Z</time>
      </trkpt>
      <trkpt lat="57.784374694576" lon="13.460336133194">
        <ele>278</ele>
        <time>2019-10-03T14:33:43Z</time>
      </trkpt>
      <trkpt lat="57.784330186687" lon="13.460407379344">
        <ele>277.2</ele>
        <time>2019-10-03T14:33:46Z</time>
      </trkpt>
      <trkpt lat="57.78431987695" lon="13.460441409858">
        <ele>276.8</ele>
        <time>2019-10-03T14:33:47Z</time>
      </trkpt>
      <trkpt lat="57.784280398201" lon="13.460568982376">
        <ele>275.6</ele>
        <time>2019-10-03T14:33:50Z</time>
      </trkpt>
      <trkpt lat="57.784250474818" lon="13.460648526607">
        <ele>275</ele>
        <time>2019-10-03T14:33:52Z</time>
      </trkpt>
      <trkpt lat="57.784306046815" lon="13.460943820944">
        <ele>274.4</ele>
        <time>2019-10-03T14:34:01Z</time>
      </trkpt>
      <trkpt lat="57.784320128407" lon="13.460994531439">
        <ele>273.4</ele>
        <time>2019-10-03T14:34:03Z</time>
      </trkpt>
      <trkpt lat="57.784319793131" lon="13.461033674912">
        <ele>273.2</ele>
        <time>2019-10-03T14:34:04Z</time>
      </trkpt>
      <trkpt lat="57.784338820044" lon="13.461113302962">
        <ele>272.2</ele>
        <time>2019-10-03T14:34:07Z</time>
      </trkpt>
      <trkpt lat="57.784347788677" lon="13.461203827482">
        <ele>271</ele>
        <time>2019-10-03T14:34:10Z</time>
      </trkpt>
      <trkpt lat="57.784353572188" lon="13.461286724473">
        <ele>269.8</ele>
        <time>2019-10-03T14:34:13Z</time>
      </trkpt>
      <trkpt lat="57.784354326559" lon="13.461313295096">
        <ele>269.4</ele>
        <time>2019-10-03T14:34:14Z</time>
      </trkpt>
      <trkpt lat="57.784355583844" lon="13.461376243165">
        <ele>268.8</ele>
        <time>2019-10-03T14:34:16Z</time>
      </trkpt>
      <trkpt lat="57.784351811989" lon="13.461487973892">
        <ele>267.8</ele>
        <time>2019-10-03T14:34:20Z</time>
      </trkpt>
      <trkpt lat="57.784300514761" lon="13.46156860777">
        <ele>266.4</ele>
        <time>2019-10-03T14:34:23Z</time>
      </trkpt>
      <trkpt lat="57.784243685479" lon="13.461640608291">
        <ele>265.2</ele>
        <time>2019-10-03T14:34:26Z</time>
      </trkpt>
      <trkpt lat="57.784200351056" lon="13.461703472541">
        <ele>263.6</ele>
        <time>2019-10-03T14:34:29Z</time>
      </trkpt>
      <trkpt lat="57.784170595311" lon="13.461756865244">
        <ele>262.4</ele>
        <time>2019-10-03T14:34:32Z</time>
      </trkpt>
      <trkpt lat="57.784153496235" lon="13.461798774744">
        <ele>261.6</ele>
        <time>2019-10-03T14:34:34Z</time>
      </trkpt>
      <trkpt lat="57.784156681357" lon="13.461851664533">
        <ele>261.2</ele>
        <time>2019-10-03T14:34:36Z</time>
      </trkpt>
      <trkpt lat="57.784187107654" lon="13.461986194028">
        <ele>261.4</ele>
        <time>2019-10-03T14:34:40Z</time>
      </trkpt>
      <trkpt lat="57.784200602513" lon="13.462193394596">
        <ele>260</ele>
        <time>2019-10-03T14:34:45Z</time>
      </trkpt>
      <trkpt lat="57.784237147597" lon="13.462522048895">
        <ele>259.2</ele>
        <time>2019-10-03T14:34:54Z</time>
      </trkpt>
      <trkpt lat="57.784246786782" lon="13.462562282015">
        <ele>259</ele>
        <time>2019-10-03T14:34:55Z</time>
      </trkpt>
      <trkpt lat="57.784274949966" lon="13.46286361132">
        <ele>258.2</ele>
        <time>2019-10-03T14:35:03Z</time>
      </trkpt>
      <trkpt lat="57.784257767071" lon="13.462947514139">
        <ele>258.2</ele>
        <time>2019-10-03T14:35:06Z</time>
      </trkpt>
      <trkpt lat="57.784226251127" lon="13.462996212978">
        <ele>258</ele>
        <time>2019-10-03T14:35:09Z</time>
      </trkpt>
      <trkpt lat="57.784205380196" lon="13.463073661734">
        <ele>258</ele>
        <time>2019-10-03T14:35:12Z</time>
      </trkpt>
      <trkpt lat="57.784189370767" lon="13.46309495176">
        <ele>258</ele>
        <time>2019-10-03T14:35:14Z</time>
      </trkpt>
      <trkpt lat="57.784161207583" lon="13.463162174598">
        <ele>258.2</ele>
        <time>2019-10-03T14:35:18Z</time>
      </trkpt>
      <trkpt lat="57.784155088796" lon="13.463180028045">
        <ele>257.8</ele>
        <time>2019-10-03T14:35:19Z</time>
      </trkpt>
      <trkpt lat="57.784121980291" lon="13.463320843965">
        <ele>258</ele>
        <time>2019-10-03T14:35:27Z</time>
      </trkpt>
      <trkpt lat="57.784118376074" lon="13.463356047945">
        <ele>258</ele>
        <time>2019-10-03T14:35:29Z</time>
      </trkpt>
      <trkpt lat="57.784114688038" lon="13.463393766495">
        <ele>258</ele>
        <time>2019-10-03T14:35:31Z</time>
      </trkpt>
      <trkpt lat="57.784113933667" lon="13.463423103145">
        <ele>258</ele>
        <time>2019-10-03T14:35:33Z</time>
      </trkpt>
      <trkpt lat="57.784115023314" lon="13.463449925225">
        <ele>258</ele>
        <time>2019-10-03T14:35:35Z</time>
      </trkpt>
      <trkpt lat="57.784116699694" lon="13.463480686798">
        <ele>258.2</ele>
        <time>2019-10-03T14:35:37Z</time>
      </trkpt>
      <trkpt lat="57.783963897657" lon="13.463537599899">
        <ele>257.8</ele>
        <time>2019-10-03T14:35:50Z</time>
      </trkpt>
      <trkpt lat="57.783783602988" lon="13.463451601605">
        <ele>257.8</ele>
        <time>2019-10-03T14:35:57Z</time>
      </trkpt>
      <trkpt lat="57.783621245585" lon="13.463288489831">
        <ele>257.2</ele>
        <time>2019-10-03T14:36:04Z</time>
      </trkpt>
      <trkpt lat="57.783534744377" lon="13.463215902577">
        <ele>257</ele>
        <time>2019-10-03T14:36:08Z</time>
      </trkpt>
      <trkpt lat="57.783401723624" lon="13.463130491016">
        <ele>257.2</ele>
        <time>2019-10-03T14:36:15Z</time>
      </trkpt>
      <trkpt lat="57.783249927415" lon="13.462954471116">
        <ele>256.6</ele>
        <time>2019-10-03T14:36:24Z</time>
      </trkpt>
      <trkpt lat="57.783196450893" lon="13.462930163606">
        <ele>256.8</ele>
        <time>2019-10-03T14:36:27Z</time>
      </trkpt>
      <trkpt lat="57.783015569491" lon="13.462971905468">
        <ele>256.8</ele>
        <time>2019-10-03T14:36:38Z</time>
      </trkpt>
      <trkpt lat="57.782841728885" lon="13.463107189334">
        <ele>256.6</ele>
        <time>2019-10-03T14:36:47Z</time>
      </trkpt>
      <trkpt lat="57.782828150207" lon="13.463147170997">
        <ele>256.8</ele>
        <time>2019-10-03T14:36:49Z</time>
      </trkpt>
      <trkpt lat="57.78281784047" lon="13.463193606723">
        <ele>256.8</ele>
        <time>2019-10-03T14:36:52Z</time>
      </trkpt>
      <trkpt lat="57.782805854353" lon="13.463223027192">
        <ele>257</ele>
        <time>2019-10-03T14:36:54Z</time>
      </trkpt>
      <trkpt lat="57.782795293159" lon="13.463250771281">
        <ele>257</ele>
        <time>2019-10-03T14:36:56Z</time>
      </trkpt>
      <trkpt lat="57.782776014789" lon="13.463272899497">
        <ele>257.2</ele>
        <time>2019-10-03T14:36:58Z</time>
      </trkpt>
      <trkpt lat="57.782690687047" lon="13.463340876706">
        <ele>257.2</ele>
        <time>2019-10-03T14:37:04Z</time>
      </trkpt>
      <trkpt lat="57.782487928886" lon="13.463340373792">
        <ele>257.6</ele>
        <time>2019-10-03T14:37:12Z</time>
      </trkpt>
      <trkpt lat="57.782304784371" lon="13.463297374645">
        <ele>256.6</ele>
        <time>2019-10-03T14:37:21Z</time>
      </trkpt>
      <trkpt lat="57.782215684774" lon="13.463300895043">
        <ele>255.8</ele>
        <time>2019-10-03T14:37:26Z</time>
      </trkpt>
      <trkpt lat="57.782138152199" lon="13.463288322193">
        <ele>254.8</ele>
        <time>2019-10-03T14:37:30Z</time>
      </trkpt>
      <trkpt lat="57.78202575092" lon="13.463295446808">
        <ele>254.4</ele>
        <time>2019-10-03T14:37:36Z</time>
      </trkpt>
      <trkpt lat="57.781843612233" lon="13.463228140151">
        <ele>254.4</ele>
        <time>2019-10-03T14:37:43Z</time>
      </trkpt>
      <trkpt lat="57.78181955618" lon="13.463207185401">
        <ele>254.4</ele>
        <time>2019-10-03T14:37:44Z</time>
      </trkpt>
      <trkpt lat="57.781670693636" lon="13.462981628472">
        <ele>254</ele>
        <time>2019-10-03T14:37:52Z</time>
      </trkpt>
      <trkpt lat="57.781550245733" lon="13.46284098019">
        <ele>254</ele>
        <time>2019-10-03T14:37:58Z</time>
      </trkpt>
      <trkpt lat="57.781542618204" lon="13.462808626056">
        <ele>253.6</ele>
        <time>2019-10-03T14:37:59Z</time>
      </trkpt>
      <trkpt lat="57.781548401715" lon="13.462722963038">
        <ele>253.4</ele>
        <time>2019-10-03T14:38:02Z</time>
      </trkpt>
      <trkpt lat="57.781586623179" lon="13.462606622266">
        <ele>253.4</ele>
        <time>2019-10-03T14:38:08Z</time>
      </trkpt>
      <trkpt lat="57.781583354238" lon="13.462562282015">
        <ele>253.8</ele>
        <time>2019-10-03T14:38:10Z</time>
      </trkpt>
      <trkpt lat="57.781586790817" lon="13.46250654238">
        <ele>253.8</ele>
        <time>2019-10-03T14:38:13Z</time>
      </trkpt>
      <trkpt lat="57.781587880464" lon="13.462441834112">
        <ele>254</ele>
        <time>2019-10-03T14:38:16Z</time>
      </trkpt>
      <trkpt lat="57.781542366747" lon="13.462318704001">
        <ele>253.6</ele>
        <time>2019-10-03T14:38:20Z</time>
      </trkpt>
      <trkpt lat="57.7814742219" lon="13.462282410374">
        <ele>253.4</ele>
        <time>2019-10-03T14:38:27Z</time>
      </trkpt>
      <trkpt lat="57.78141219584" lon="13.462310489739">
        <ele>253.6</ele>
        <time>2019-10-03T14:38:36Z</time>
      </trkpt>
      <trkpt lat="57.781372214177" lon="13.462331109213">
        <ele>253.8</ele>
        <time>2019-10-03T14:38:38Z</time>
      </trkpt>
      <trkpt lat="57.781185716902" lon="13.462398499689">
        <ele>253.4</ele>
        <time>2019-10-03T14:38:48Z</time>
      </trkpt>
      <trkpt lat="57.780999219627" lon="13.462477960101">
        <ele>253.8</ele>
        <time>2019-10-03T14:38:57Z</time>
      </trkpt>
      <trkpt lat="57.780821523347" lon="13.462609975026">
        <ele>254.2</ele>
        <time>2019-10-03T14:39:07Z</time>
      </trkpt>
      <trkpt lat="57.780806268289" lon="13.462627828473">
        <ele>254.2</ele>
        <time>2019-10-03T14:39:08Z</time>
      </trkpt>
      <trkpt lat="57.780761592762" lon="13.462689351619">
        <ele>254.6</ele>
        <time>2019-10-03T14:39:11Z</time>
      </trkpt>
      <trkpt lat="57.780745499514" lon="13.462713994405">
        <ele>255</ele>
        <time>2019-10-03T14:39:13Z</time>
      </trkpt>
      <trkpt lat="57.780709541163" lon="13.462774427904">
        <ele>255.2</ele>
        <time>2019-10-03T14:39:17Z</time>
      </trkpt>
      <trkpt lat="57.780697638865" lon="13.462789515324">
        <ele>255.4</ele>
        <time>2019-10-03T14:39:18Z</time>
      </trkpt>
      <trkpt lat="57.780663608351" lon="13.462878363464">
        <ele>255.6</ele>
        <time>2019-10-03T14:39:22Z</time>
      </trkpt>
      <trkpt lat="57.78065111932" lon="13.462923961">
        <ele>255.6</ele>
        <time>2019-10-03T14:39:24Z</time>
      </trkpt>
      <trkpt lat="57.780636953909" lon="13.462960589903">
        <ele>255.6</ele>
        <time>2019-10-03T14:39:26Z</time>
      </trkpt>
      <trkpt lat="57.780625051611" lon="13.462986238517">
        <ele>255.4</ele>
        <time>2019-10-03T14:39:28Z</time>
      </trkpt>
      <trkpt lat="57.780594792952" lon="13.463020855764">
        <ele>255.6</ele>
        <time>2019-10-03T14:39:31Z</time>
      </trkpt>
      <trkpt lat="57.78040301508" lon="13.463089168249">
        <ele>255.8</ele>
        <time>2019-10-03T14:39:42Z</time>
      </trkpt>
      <trkpt lat="57.780225737895" lon="13.463171059412">
        <ele>254.6</ele>
        <time>2019-10-03T14:39:51Z</time>
      </trkpt>
      <trkpt lat="57.780189025173" lon="13.463188074669">
        <ele>255</ele>
        <time>2019-10-03T14:39:53Z</time>
      </trkpt>
      <trkpt lat="57.780083832328" lon="13.463131496844">
        <ele>255.2</ele>
        <time>2019-10-03T14:40:00Z</time>
      </trkpt>
      <trkpt lat="57.780044605036" lon="13.463106351144">
        <ele>255.4</ele>
        <time>2019-10-03T14:40:04Z</time>
      </trkpt>
      <trkpt lat="57.780027170684" lon="13.463105261497">
        <ele>255.6</ele>
        <time>2019-10-03T14:40:06Z</time>
      </trkpt>
      <trkpt lat="57.780020297526" lon="13.463099645624">
        <ele>256</ele>
        <time>2019-10-03T14:40:07Z</time>
      </trkpt>
      <trkpt lat="57.779944608969" lon="13.463055221554">
        <ele>256.8</ele>
        <time>2019-10-03T14:40:14Z</time>
      </trkpt>
      <trkpt lat="57.779828100559" lon="13.462862521673">
        <ele>257.8</ele>
        <time>2019-10-03T14:40:28Z</time>
      </trkpt>
      <trkpt lat="57.779811504397" lon="13.462841734561">
        <ele>258.4</ele>
        <time>2019-10-03T14:40:30Z</time>
      </trkpt>
      <trkpt lat="57.77979532733" lon="13.462847769529">
        <ele>259</ele>
        <time>2019-10-03T14:40:33Z</time>
      </trkpt>
      <trkpt lat="57.779770013992" lon="13.462860426198">
        <ele>260.2</ele>
        <time>2019-10-03T14:40:37Z</time>
      </trkpt>
      <trkpt lat="57.77973581584" lon="13.462879788387">
        <ele>261.6</ele>
        <time>2019-10-03T14:40:41Z</time>
      </trkpt>
      <trkpt lat="57.77971150833" lon="13.462886829183">
        <ele>262.2</ele>
        <time>2019-10-03T14:40:44Z</time>
      </trkpt>
      <trkpt lat="57.779704299896" lon="13.46288708064">
        <ele>262.6</ele>
        <time>2019-10-03T14:40:45Z</time>
      </trkpt>
      <trkpt lat="57.77970145005" lon="13.462877441455">
        <ele>262.8</ele>
        <time>2019-10-03T14:40:46Z</time>
      </trkpt>
      <trkpt lat="57.779676555807" lon="13.462785743469">
        <ele>262.8</ele>
        <time>2019-10-03T14:40:51Z</time>
      </trkpt>
      <trkpt lat="57.779649985184" lon="13.462708881446">
        <ele>261.2</ele>
        <time>2019-10-03T14:40:56Z</time>
      </trkpt>
      <trkpt lat="57.779636490325" lon="13.462673090733">
        <ele>260</ele>
        <time>2019-10-03T14:40:58Z</time>
      </trkpt>
      <trkpt lat="57.779620061801" lon="13.462615087985">
        <ele>258.8</ele>
        <time>2019-10-03T14:41:00Z</time>
      </trkpt>
      <trkpt lat="57.779604639105" lon="13.462475445531">
        <ele>257.6</ele>
        <time>2019-10-03T14:41:04Z</time>
      </trkpt>
      <trkpt lat="57.77963439485" lon="13.462328929919">
        <ele>256.2</ele>
        <time>2019-10-03T14:41:08Z</time>
      </trkpt>
      <trkpt lat="57.779656355428" lon="13.462268915515">
        <ele>255.8</ele>
        <time>2019-10-03T14:41:10Z</time>
      </trkpt>
      <trkpt lat="57.779722237162" lon="13.462151317458">
        <ele>255</ele>
        <time>2019-10-03T14:41:16Z</time>
      </trkpt>
      <trkpt lat="57.77975928516" lon="13.462101780429">
        <ele>253.6</ele>
        <time>2019-10-03T14:41:19Z</time>
      </trkpt>
      <trkpt lat="57.77980706199" lon="13.462026930062">
        <ele>252.6</ele>
        <time>2019-10-03T14:41:22Z</time>
      </trkpt>
      <trkpt lat="57.779928264264" lon="13.461741861643">
        <ele>252.4</ele>
        <time>2019-10-03T14:41:29Z</time>
      </trkpt>
      <trkpt lat="57.780000013328" lon="13.461627783984">
        <ele>253.8</ele>
        <time>2019-10-03T14:41:33Z</time>
      </trkpt>
      <trkpt lat="57.78014233799" lon="13.461468695522">
        <ele>254.8</ele>
        <time>2019-10-03T14:41:40Z</time>
      </trkpt>
      <trkpt lat="57.780204950783" lon="13.461381020848">
        <ele>256.2</ele>
        <time>2019-10-03T14:41:43Z</time>
      </trkpt>
      <trkpt lat="57.780359848295" lon="13.461242384222">
        <ele>257.2</ele>
        <time>2019-10-03T14:41:51Z</time>
      </trkpt>
      <trkpt lat="57.780372337326" lon="13.461252945416">
        <ele>257.4</ele>
        <time>2019-10-03T14:41:52Z</time>
      </trkpt>
      <trkpt lat="57.780393962628" lon="13.461451512627">
        <ele>256</ele>
        <time>2019-10-03T14:41:59Z</time>
      </trkpt>
      <trkpt lat="57.780403182718" lon="13.461472048282">
        <ele>256</ele>
        <time>2019-10-03T14:42:00Z</time>
      </trkpt>
      <trkpt lat="57.78046420295" lon="13.461584784837">
        <ele>254.8</ele>
        <time>2019-10-03T14:42:05Z</time>
      </trkpt>
      <trkpt lat="57.780509381391" lon="13.461696347926">
        <ele>253.8</ele>
        <time>2019-10-03T14:42:11Z</time>
      </trkpt>
      <trkpt lat="57.780587752156" lon="13.461761307651">
        <ele>254.4</ele>
        <time>2019-10-03T14:42:17Z</time>
      </trkpt>
      <trkpt lat="57.78061004801" lon="13.461767845533">
        <ele>254.6</ele>
        <time>2019-10-03T14:42:19Z</time>
      </trkpt>
      <trkpt lat="57.780635864262" lon="13.461797601278">
        <ele>254.4</ele>
        <time>2019-10-03T14:42:23Z</time>
      </trkpt>
      <trkpt lat="57.78070392529" lon="13.461846383936">
        <ele>254.4</ele>
        <time>2019-10-03T14:42:31Z</time>
      </trkpt>
      <trkpt lat="57.78073577651" lon="13.461869937075">
        <ele>254.2</ele>
        <time>2019-10-03T14:42:34Z</time>
      </trkpt>
      <trkpt lat="57.780930404228" lon="13.461824674815">
        <ele>254</ele>
        <time>2019-10-03T14:42:47Z</time>
      </trkpt>
      <trkpt lat="57.781023778594" lon="13.461798858563">
        <ele>254.8</ele>
        <time>2019-10-03T14:42:52Z</time>
      </trkpt>
      <trkpt lat="57.781093348364" lon="13.461772120302">
        <ele>256</ele>
        <time>2019-10-03T14:42:57Z</time>
      </trkpt>
      <trkpt lat="57.781138862081" lon="13.46176055328">
        <ele>255.6</ele>
        <time>2019-10-03T14:43:00Z</time>
      </trkpt>
      <trkpt lat="57.781168953102" lon="13.461781675668">
        <ele>254.8</ele>
        <time>2019-10-03T14:43:02Z</time>
      </trkpt>
      <trkpt lat="57.781332064876" lon="13.461926850176">
        <ele>254.8</ele>
        <time>2019-10-03T14:43:11Z</time>
      </trkpt>
      <trkpt lat="57.781416889704" lon="13.461941099406">
        <ele>255.8</ele>
        <time>2019-10-03T14:43:15Z</time>
      </trkpt>
      <trkpt lat="57.781532643743" lon="13.461931292583">
        <ele>257</ele>
        <time>2019-10-03T14:43:21Z</time>
      </trkpt>
      <trkpt lat="57.781599028391" lon="13.461890221273">
        <ele>257.6</ele>
        <time>2019-10-03T14:43:24Z</time>
      </trkpt>
      <trkpt lat="57.781637417493" lon="13.461863147736">
        <ele>258</ele>
        <time>2019-10-03T14:43:26Z</time>
      </trkpt>
      <trkpt lat="57.781711932584" lon="13.461745382041">
        <ele>259.2</ele>
        <time>2019-10-03T14:43:33Z</time>
      </trkpt>
      <trkpt lat="57.781724421615" lon="13.461734904666">
        <ele>259.2</ele>
        <time>2019-10-03T14:43:34Z</time>
      </trkpt>
      <trkpt lat="57.781845707708" lon="13.461485459322">
        <ele>260.2</ele>
        <time>2019-10-03T14:43:46Z</time>
      </trkpt>
      <trkpt lat="57.781888203941" lon="13.461367693627">
        <ele>260.2</ele>
        <time>2019-10-03T14:43:51Z</time>
      </trkpt>
      <trkpt lat="57.781934891124" lon="13.461145405639">
        <ele>261.4</ele>
        <time>2019-10-03T14:44:03Z</time>
      </trkpt>
      <trkpt lat="57.781996665727" lon="13.461060916087">
        <ele>262.6</ele>
        <time>2019-10-03T14:44:09Z</time>
      </trkpt>
      <trkpt lat="57.782011836966" lon="13.461051193083">
        <ele>262.6</ele>
        <time>2019-10-03T14:44:10Z</time>
      </trkpt>
      <trkpt lat="57.782062966556" lon="13.461012720162">
        <ele>263.6</ele>
        <time>2019-10-03T14:44:14Z</time>
      </trkpt>
      <trkpt lat="57.782106468617" lon="13.460964188961">
        <ele>264.6</ele>
        <time>2019-10-03T14:44:18Z</time>
      </trkpt>
      <trkpt lat="57.782115688707" lon="13.460949604455">
        <ele>264.8</ele>
        <time>2019-10-03T14:44:19Z</time>
      </trkpt>
      <trkpt lat="57.78216069951" lon="13.460807363612">
        <ele>265.6</ele>
        <time>2019-10-03T14:44:27Z</time>
      </trkpt>
      <trkpt lat="57.782270586219" lon="13.460504777022">
        <ele>264.4</ele>
        <time>2019-10-03T14:44:37Z</time>
      </trkpt>
      <trkpt lat="57.782328672786" lon="13.460339402135">
        <ele>264.2</ele>
        <time>2019-10-03T14:44:42Z</time>
      </trkpt>
      <trkpt lat="57.782386675534" lon="13.460160700027">
        <ele>264.4</ele>
        <time>2019-10-03T14:44:48Z</time>
      </trkpt>
      <trkpt lat="57.78238533443" lon="13.459957774228">
        <ele>265.2</ele>
        <time>2019-10-03T14:44:56Z</time>
      </trkpt>
      <trkpt lat="57.782388519552" lon="13.459954589106">
        <ele>265.6</ele>
        <time>2019-10-03T14:44:57Z</time>
      </trkpt>
      <trkpt lat="57.782407881741" lon="13.459912511968">
        <ele>266.4</ele>
        <time>2019-10-03T14:45:05Z</time>
      </trkpt>
      <trkpt lat="57.782416012184" lon="13.459882001852">
        <ele>266</ele>
        <time>2019-10-03T14:45:14Z</time>
      </trkpt>
      <trkpt lat="57.782444426825" lon="13.459936232745">
        <ele>266.6</ele>
        <time>2019-10-03T14:45:18Z</time>
      </trkpt>
      <trkpt lat="57.782454233648" lon="13.459950733432">
        <ele>266.6</ele>
        <time>2019-10-03T14:45:19Z</time>
      </trkpt>
      <trkpt lat="57.782642826398" lon="13.460019884107">
        <ele>267</ele>
        <time>2019-10-03T14:45:30Z</time>
      </trkpt>
      <trkpt lat="57.782774003133" lon="13.460118455251">
        <ele>267.8</ele>
        <time>2019-10-03T14:45:36Z</time>
      </trkpt>
      <trkpt lat="57.782965026634" lon="13.46023420929">
        <ele>268.6</ele>
        <time>2019-10-03T14:45:43Z</time>
      </trkpt>
      <trkpt lat="57.783005678849" lon="13.4602333711">
        <ele>269.2</ele>
        <time>2019-10-03T14:45:44Z</time>
      </trkpt>
      <trkpt lat="57.783085893632" lon="13.460240747172">
        <ele>270.4</ele>
        <time>2019-10-03T14:45:49Z</time>
      </trkpt>
      <trkpt lat="57.783154122298" lon="13.460259774085">
        <ele>271.6</ele>
        <time>2019-10-03T14:45:54Z</time>
      </trkpt>
      <trkpt lat="57.783197791997" lon="13.460245776312">
        <ele>272.8</ele>
        <time>2019-10-03T14:45:58Z</time>
      </trkpt>
      <trkpt lat="57.783334919881" lon="13.460135638146">
        <ele>274</ele>
        <time>2019-10-03T14:46:14Z</time>
      </trkpt>
      <trkpt lat="57.783374230992" lon="13.460074366457">
        <ele>275.2</ele>
        <time>2019-10-03T14:46:19Z</time>
      </trkpt>
      <trkpt lat="57.783407507135" lon="13.460031115853">
        <ele>276.2</ele>
        <time>2019-10-03T14:46:23Z</time>
      </trkpt>
      <trkpt lat="57.783447237341" lon="13.459970011802">
        <ele>277.4</ele>
        <time>2019-10-03T14:46:28Z</time>
      </trkpt>
      <trkpt lat="57.783479842932" lon="13.459913769253">
        <ele>278.6</ele>
        <time>2019-10-03T14:46:33Z</time>
      </trkpt>
      <trkpt lat="57.783540527888" lon="13.459791561151">
        <ele>279.6</ele>
        <time>2019-10-03T14:46:43Z</time>
      </trkpt>
      <trkpt lat="57.783539102965" lon="13.459671867619">
        <ele>280.6</ele>
        <time>2019-10-03T14:46:49Z</time>
      </trkpt>
      <trkpt lat="57.783525608106" lon="13.459585366411">
        <ele>281.8</ele>
        <time>2019-10-03T14:46:54Z</time>
      </trkpt>
      <trkpt lat="57.783522422984" lon="13.459479503014">
        <ele>282.8</ele>
        <time>2019-10-03T14:46:59Z</time>
      </trkpt>
      <trkpt lat="57.783644211991" lon="13.459268865867">
        <ele>283.8</ele>
        <time>2019-10-03T14:47:11Z</time>
      </trkpt>
      <trkpt lat="57.783774299079" lon="13.459066442982">
        <ele>285</ele>
        <time>2019-10-03T14:47:24Z</time>
      </trkpt>
      <trkpt lat="57.78382366847" lon="13.458923950682">
        <ele>286</ele>
        <time>2019-10-03T14:47:32Z</time>
      </trkpt>
      <trkpt lat="57.783816711493" lon="13.458875168024">
        <ele>287.2</ele>
        <time>2019-10-03T14:47:36Z</time>
      </trkpt>
      <trkpt lat="57.783824590479" lon="13.458802161675">
        <ele>288.4</ele>
        <time>2019-10-03T14:47:41Z</time>
      </trkpt>
      <trkpt lat="57.783838839709" lon="13.458717755942">
        <ele>289.4</ele>
        <time>2019-10-03T14:47:46Z</time>
      </trkpt>
      <trkpt lat="57.783892483869" lon="13.458653885864">
        <ele>290.4</ele>
        <time>2019-10-03T14:47:51Z</time>
      </trkpt>
      <trkpt lat="57.783922239614" lon="13.458582723533">
        <ele>291.4</ele>
        <time>2019-10-03T14:47:56Z</time>
      </trkpt>
      <trkpt lat="57.783986528787" lon="13.458535449617">
        <ele>292.6</ele>
        <time>2019-10-03T14:48:03Z</time>
      </trkpt>
      <trkpt lat="57.784055260367" lon="13.45853268359">
        <ele>293.6</ele>
        <time>2019-10-03T14:48:10Z</time>
      </trkpt>
      <trkpt lat="57.784096750772" lon="13.458466298942">
        <ele>294.8</ele>
        <time>2019-10-03T14:48:15Z</time>
      </trkpt>
      <trkpt lat="57.784099768256" lon="13.458444757459">
        <ele>294.8</ele>
        <time>2019-10-03T14:48:17Z</time>
      </trkpt>
      <trkpt lat="57.783961802182" lon="13.458351131636">
        <ele>295</ele>
        <time>2019-10-03T14:48:40Z</time>
      </trkpt>
      <trkpt lat="57.783868427816" lon="13.458370242368">
        <ele>293.8</ele>
        <time>2019-10-03T14:48:49Z</time>
      </trkpt>
      <trkpt lat="57.783823249375" lon="13.458369487997">
        <ele>292.6</ele>
        <time>2019-10-03T14:48:53Z</time>
      </trkpt>
      <trkpt lat="57.783798019856" lon="13.458359681174">
        <ele>291.4</ele>
        <time>2019-10-03T14:48:56Z</time>
      </trkpt>
      <trkpt lat="57.783771533052" lon="13.45833487075">
        <ele>290.2</ele>
        <time>2019-10-03T14:48:59Z</time>
      </trkpt>
      <trkpt lat="57.783613031323" lon="13.458136303539">
        <ele>289.4</ele>
        <time>2019-10-03T14:49:14Z</time>
      </trkpt>
      <trkpt lat="57.783445477142" lon="13.457961289467">
        <ele>290.6</ele>
        <time>2019-10-03T14:49:22Z</time>
      </trkpt>
      <trkpt lat="57.783289070888" lon="13.457780491884">
        <ele>290</ele>
        <time>2019-10-03T14:49:29Z</time>
      </trkpt>
      <trkpt lat="57.783193517228" lon="13.457635233557">
        <ele>291.6</ele>
        <time>2019-10-03T14:49:34Z</time>
      </trkpt>
      <trkpt lat="57.783032333291" lon="13.457429374093">
        <ele>291.6</ele>
        <time>2019-10-03T14:49:42Z</time>
      </trkpt>
      <trkpt lat="57.782851870984" lon="13.457362654169">
        <ele>290.6</ele>
        <time>2019-10-03T14:49:50Z</time>
      </trkpt>
      <trkpt lat="57.782813314244" lon="13.457321079945">
        <ele>290.4</ele>
        <time>2019-10-03T14:49:52Z</time>
      </trkpt>
      <trkpt lat="57.782722202991" lon="13.45720331425">
        <ele>291.6</ele>
        <time>2019-10-03T14:49:57Z</time>
      </trkpt>
      <trkpt lat="57.782606113676" lon="13.456906930266">
        <ele>291</ele>
        <time>2019-10-03T14:50:05Z</time>
      </trkpt>
      <trkpt lat="57.782571161153" lon="13.456790254218">
        <ele>291.4</ele>
        <time>2019-10-03T14:50:08Z</time>
      </trkpt>
      <trkpt lat="57.782459514245" lon="13.456633680326">
        <ele>290.6</ele>
        <time>2019-10-03T14:50:13Z</time>
      </trkpt>
      <trkpt lat="57.78241802384" lon="13.456524296531">
        <ele>290.4</ele>
        <time>2019-10-03T14:50:16Z</time>
      </trkpt>
      <trkpt lat="57.782352225925" lon="13.456200252277">
        <ele>290.2</ele>
        <time>2019-10-03T14:50:24Z</time>
      </trkpt>
      <trkpt lat="57.782322973094" lon="13.455929433088">
        <ele>289.8</ele>
        <time>2019-10-03T14:50:30Z</time>
      </trkpt>
      <trkpt lat="57.782288523485" lon="13.455853744531">
        <ele>289.4</ele>
        <time>2019-10-03T14:50:32Z</time>
      </trkpt>
      <trkpt lat="57.782161034786" lon="13.455749306057">
        <ele>288.2</ele>
        <time>2019-10-03T14:50:39Z</time>
      </trkpt>
      <trkpt lat="57.782096913251" lon="13.455686777083">
        <ele>287.2</ele>
        <time>2019-10-03T14:50:42Z</time>
      </trkpt>
      <trkpt lat="57.782049806973" lon="13.455659452089">
        <ele>286.6</ele>
        <time>2019-10-03T14:50:45Z</time>
      </trkpt>
      <trkpt lat="57.781922150636" lon="13.455674036595">
        <ele>286</ele>
        <time>2019-10-03T14:50:51Z</time>
      </trkpt>
      <trkpt lat="57.781805474588" lon="13.455656686062">
        <ele>284.8</ele>
        <time>2019-10-03T14:50:56Z</time>
      </trkpt>
      <trkpt lat="57.781667089419" lon="13.455616536761">
        <ele>283.6</ele>
        <time>2019-10-03T14:51:03Z</time>
      </trkpt>
      <trkpt lat="57.781589137749" lon="13.455610334155">
        <ele>282.4</ele>
        <time>2019-10-03T14:51:07Z</time>
      </trkpt>
      <trkpt lat="57.781532811381" lon="13.455591139604">
        <ele>281</ele>
        <time>2019-10-03T14:51:10Z</time>
      </trkpt>
      <trkpt lat="57.781438012092" lon="13.455565071895">
        <ele>280</ele>
        <time>2019-10-03T14:51:15Z</time>
      </trkpt>
      <trkpt lat="57.781360730974" lon="13.455564233705">
        <ele>278.8</ele>
        <time>2019-10-03T14:51:19Z</time>
      </trkpt>
      <trkpt lat="57.781175490984" lon="13.455531376657">
        <ele>278.8</ele>
        <time>2019-10-03T14:51:27Z</time>
      </trkpt>
      <trkpt lat="57.780987736424" lon="13.455576303641">
        <ele>278.2</ele>
        <time>2019-10-03T14:51:35Z</time>
      </trkpt>
      <trkpt lat="57.780888410909" lon="13.455555851805">
        <ele>277.4</ele>
        <time>2019-10-03T14:51:40Z</time>
      </trkpt>
      <trkpt lat="57.780808363764" lon="13.455506733871">
        <ele>276.2</ele>
        <time>2019-10-03T14:51:44Z</time>
      </trkpt>
      <trkpt lat="57.780626476534" lon="13.455500279808">
        <ele>275.8</ele>
        <time>2019-10-03T14:51:54Z</time>
      </trkpt>
      <trkpt lat="57.780582303921" lon="13.455502794378">
        <ele>275.6</ele>
        <time>2019-10-03T14:51:56Z</time>
      </trkpt>
      <trkpt lat="57.780463197122" lon="13.455244212763">
        <ele>276.2</ele>
        <time>2019-10-03T14:52:04Z</time>
      </trkpt>
      <trkpt lat="57.780331098378" lon="13.455004238966">
        <ele>276.2</ele>
        <time>2019-10-03T14:52:12Z</time>
      </trkpt>
      <trkpt lat="57.780332271844" lon="13.454909439677">
        <ele>276.8</ele>
        <time>2019-10-03T14:52:15Z</time>
      </trkpt>
      <trkpt lat="57.780330008731" lon="13.454838612622">
        <ele>277.4</ele>
        <time>2019-10-03T14:52:17Z</time>
      </trkpt>
      <trkpt lat="57.780252643794" lon="13.454508198124">
        <ele>277.8</ele>
        <time>2019-10-03T14:52:26Z</time>
      </trkpt>
      <trkpt lat="57.780188857535" lon="13.454177615988">
        <ele>277.2</ele>
        <time>2019-10-03T14:52:35Z</time>
      </trkpt>
      <trkpt lat="57.780124065448" lon="13.453977540035">
        <ele>278.6</ele>
        <time>2019-10-03T14:52:42Z</time>
      </trkpt>
      <trkpt lat="57.780100512309" lon="13.45377595534">
        <ele>279.4</ele>
        <time>2019-10-03T14:52:51Z</time>
      </trkpt>
      <trkpt lat="57.78008534107" lon="13.453726753587">
        <ele>279.6</ele>
        <time>2019-10-03T14:52:53Z</time>
      </trkpt>
      <trkpt lat="57.780086263079" lon="13.453704122457">
        <ele>279.6</ele>
        <time>2019-10-03T14:52:54Z</time>
      </trkpt>
      <trkpt lat="57.780091795133" lon="13.453611753919">
        <ele>280.6</ele>
        <time>2019-10-03T14:52:59Z</time>
      </trkpt>
      <trkpt lat="57.780090202572" lon="13.453555092275">
        <ele>281.2</ele>
        <time>2019-10-03T14:53:02Z</time>
      </trkpt>
      <trkpt lat="57.780090705486" lon="13.453494826414">
        <ele>281.8</ele>
        <time>2019-10-03T14:53:05Z</time>
      </trkpt>
      <trkpt lat="57.780074947514" lon="13.45313641637">
        <ele>282.2</ele>
        <time>2019-10-03T14:53:20Z</time>
      </trkpt>
      <trkpt lat="57.780097578644" lon="13.452919828074">
        <ele>280.6</ele>
        <time>2019-10-03T14:53:26Z</time>
      </trkpt>
      <trkpt lat="57.780130854787" lon="13.452581450771">
        <ele>280.2</ele>
        <time>2019-10-03T14:53:34Z</time>
      </trkpt>
      <trkpt lat="57.780079054645" lon="13.452258496164">
        <ele>280.4</ele>
        <time>2019-10-03T14:53:42Z</time>
      </trkpt>
      <trkpt lat="57.7801079722" lon="13.451912826608">
        <ele>281.6</ele>
        <time>2019-10-03T14:53:51Z</time>
      </trkpt>
      <trkpt lat="57.780117527566" lon="13.451828756151">
        <ele>281.6</ele>
        <time>2019-10-03T14:53:53Z</time>
      </trkpt>
      <trkpt lat="57.780127166751" lon="13.451577718246">
        <ele>282.8</ele>
        <time>2019-10-03T14:53:59Z</time>
      </trkpt>
      <trkpt lat="57.780159185609" lon="13.451226013722">
        <ele>282.8</ele>
        <time>2019-10-03T14:54:11Z</time>
      </trkpt>
      <trkpt lat="57.780127502027" lon="13.451093579702">
        <ele>282.8</ele>
        <time>2019-10-03T14:54:17Z</time>
      </trkpt>
      <trkpt lat="57.780065392148" lon="13.450775067502">
        <ele>283.2</ele>
        <time>2019-10-03T14:54:32Z</time>
      </trkpt>
      <trkpt lat="57.780038737706" lon="13.450433672715">
        <ele>283.6</ele>
        <time>2019-10-03T14:54:48Z</time>
      </trkpt>
      <trkpt lat="57.780024488476" lon="13.450397882002">
        <ele>283.8</ele>
        <time>2019-10-03T14:54:50Z</time>
      </trkpt>
      <trkpt lat="57.779947123539" lon="13.450077441965">
        <ele>284.4</ele>
        <time>2019-10-03T14:55:07Z</time>
      </trkpt>
      <trkpt lat="57.779959864027" lon="13.449974428414">
        <ele>285</ele>
        <time>2019-10-03T14:55:10Z</time>
      </trkpt>
      <trkpt lat="57.779949721928" lon="13.449719367197">
        <ele>286.2</ele>
        <time>2019-10-03T14:55:17Z</time>
      </trkpt>
      <trkpt lat="57.779884426927" lon="13.449373110908">
        <ele>287.4</ele>
        <time>2019-10-03T14:55:26Z</time>
      </trkpt>
      <trkpt lat="57.779859448865" lon="13.449038756917">
        <ele>288</ele>
        <time>2019-10-03T14:55:33Z</time>
      </trkpt>
      <trkpt lat="57.779882415271" lon="13.448881428654">
        <ele>288.8</ele>
        <time>2019-10-03T14:55:37Z</time>
      </trkpt>
      <trkpt lat="57.779909656446" lon="13.448694679922">
        <ele>288.8</ele>
        <time>2019-10-03T14:55:42Z</time>
      </trkpt>
      <trkpt lat="57.779949805747" lon="13.448648998567">
        <ele>289.8</ele>
        <time>2019-10-03T14:55:47Z</time>
      </trkpt>
      <trkpt lat="57.779999426595" lon="13.44860599942">
        <ele>290</ele>
        <time>2019-10-03T14:55:53Z</time>
      </trkpt>
      <trkpt lat="57.780053908945" lon="13.44854397336">
        <ele>290.8</ele>
        <time>2019-10-03T14:55:59Z</time>
      </trkpt>
      <trkpt lat="57.780147702406" lon="13.448411455521">
        <ele>291.8</ele>
        <time>2019-10-03T14:56:10Z</time>
      </trkpt>
      <trkpt lat="57.780172261373" lon="13.448071904752">
        <ele>292</ele>
        <time>2019-10-03T14:56:26Z</time>
      </trkpt>
      <trkpt lat="57.780169495346" lon="13.4477191944">
        <ele>292.4</ele>
        <time>2019-10-03T14:56:43Z</time>
      </trkpt>
      <trkpt lat="57.780150468433" lon="13.44754820364">
        <ele>292.4</ele>
        <time>2019-10-03T14:56:51Z</time>
      </trkpt>
      <trkpt lat="57.780206627163" lon="13.44722550049">
        <ele>291.6</ele>
        <time>2019-10-03T14:57:02Z</time>
      </trkpt>
      <trkpt lat="57.780297067864" lon="13.44701762937">
        <ele>291</ele>
        <time>2019-10-03T14:57:09Z</time>
      </trkpt>
      <trkpt lat="57.780300588262" lon="13.446892906698">
        <ele>290.8</ele>
        <time>2019-10-03T14:57:12Z</time>
      </trkpt>
      <trkpt lat="57.7802839921" lon="13.446787043301">
        <ele>290.6</ele>
        <time>2019-10-03T14:57:15Z</time>
      </trkpt>
      <trkpt lat="57.780321123917" lon="13.446534580473">
        <ele>289.6</ele>
        <time>2019-10-03T14:57:21Z</time>
      </trkpt>
      <trkpt lat="57.78034182721" lon="13.446253116271">
        <ele>289.8</ele>
        <time>2019-10-03T14:57:28Z</time>
      </trkpt>
      <trkpt lat="57.7804264844" lon="13.44593301151">
        <ele>290.6</ele>
        <time>2019-10-03T14:57:37Z</time>
      </trkpt>
      <trkpt lat="57.780422796364" lon="13.445792363228">
        <ele>288.4</ele>
        <time>2019-10-03T14:57:41Z</time>
      </trkpt>
      <trkpt lat="57.780418437776" lon="13.445711058798">
        <ele>287</ele>
        <time>2019-10-03T14:57:43Z</time>
      </trkpt>
      <trkpt lat="57.780417096672" lon="13.445539732762">
        <ele>285.8</ele>
        <time>2019-10-03T14:57:47Z</time>
      </trkpt>
      <trkpt lat="57.780462694208" lon="13.445331861642">
        <ele>285.2</ele>
        <time>2019-10-03T14:57:52Z</time>
      </trkpt>
      <trkpt lat="57.780472333393" lon="13.445219963277">
        <ele>284.6</ele>
        <time>2019-10-03T14:57:55Z</time>
      </trkpt>
      <trkpt lat="57.780530671417" lon="13.444993651977">
        <ele>286</ele>
        <time>2019-10-03T14:58:02Z</time>
      </trkpt>
      <trkpt lat="57.780560008067" lon="13.444950569011">
        <ele>285.4</ele>
        <time>2019-10-03T14:58:05Z</time>
      </trkpt>
      <trkpt lat="57.780641563954" lon="13.444599367401">
        <ele>285</ele>
        <time>2019-10-03T14:58:17Z</time>
      </trkpt>
      <trkpt lat="57.780644581438" lon="13.444290494386">
        <ele>287.2</ele>
        <time>2019-10-03T14:58:25Z</time>
      </trkpt>
      <trkpt lat="57.780641144859" lon="13.444216817485">
        <ele>288.2</ele>
        <time>2019-10-03T14:58:27Z</time>
      </trkpt>
      <trkpt lat="57.780633098235" lon="13.444113803934">
        <ele>289.6</ele>
        <time>2019-10-03T14:58:30Z</time>
      </trkpt>
      <trkpt lat="57.780621279756" lon="13.443962343001">
        <ele>289.8</ele>
        <time>2019-10-03T14:58:37Z</time>
      </trkpt>
      <trkpt lat="57.78058657869" lon="13.443870561196">
        <ele>288.4</ele>
        <time>2019-10-03T14:58:41Z</time>
      </trkpt>
      <trkpt lat="57.780549446873" lon="13.443809708602">
        <ele>287</ele>
        <time>2019-10-03T14:58:44Z</time>
      </trkpt>
      <trkpt lat="57.780433525196" lon="13.443559844163">
        <ele>287.8</ele>
        <time>2019-10-03T14:58:52Z</time>
      </trkpt>
      <trkpt lat="57.78042313164" lon="13.443522041794">
        <ele>288</ele>
        <time>2019-10-03T14:58:53Z</time>
      </trkpt>
      <trkpt lat="57.78040720603" lon="13.443315008864">
        <ele>287.6</ele>
        <time>2019-10-03T14:58:58Z</time>
      </trkpt>
      <trkpt lat="57.780406116383" lon="13.443003621279">
        <ele>287.6</ele>
        <time>2019-10-03T14:59:06Z</time>
      </trkpt>
      <trkpt lat="57.780444673123" lon="13.442887951059">
        <ele>288</ele>
        <time>2019-10-03T14:59:10Z</time>
      </trkpt>
      <trkpt lat="57.780408463315" lon="13.442559548217">
        <ele>287</ele>
        <time>2019-10-03T14:59:19Z</time>
      </trkpt>
      <trkpt lat="57.780356327897" lon="13.442402974325">
        <ele>286</ele>
        <time>2019-10-03T14:59:24Z</time>
      </trkpt>
      <trkpt lat="57.780305868859" lon="13.442277581101">
        <ele>287</ele>
        <time>2019-10-03T14:59:30Z</time>
      </trkpt>
      <trkpt lat="57.78029740314" lon="13.442227541158">
        <ele>287.6</ele>
        <time>2019-10-03T14:59:33Z</time>
      </trkpt>
      <trkpt lat="57.780273682363" lon="13.442179680509">
        <ele>288.2</ele>
        <time>2019-10-03T14:59:35Z</time>
      </trkpt>
      <trkpt lat="57.78026219916" lon="13.442166353288">
        <ele>288.2</ele>
        <time>2019-10-03T14:59:36Z</time>
      </trkpt>
      <trkpt lat="57.780231269949" lon="13.442141123769">
        <ele>288.2</ele>
        <time>2019-10-03T14:59:39Z</time>
      </trkpt>
      <trkpt lat="57.780175195038" lon="13.442129640566">
        <ele>287.4</ele>
        <time>2019-10-03T14:59:43Z</time>
      </trkpt>
      <trkpt lat="57.780155916668" lon="13.442116983897">
        <ele>287</ele>
        <time>2019-10-03T14:59:45Z</time>
      </trkpt>
      <trkpt lat="57.780129178407" lon="13.441985304248">
        <ele>286</ele>
        <time>2019-10-03T14:59:54Z</time>
      </trkpt>
      <trkpt lat="57.7802001731" lon="13.441852786409">
        <ele>287</ele>
        <time>2019-10-03T14:59:59Z</time>
      </trkpt>
      <trkpt lat="57.780234874166" lon="13.441515247296">
        <ele>286.4</ele>
        <time>2019-10-03T15:00:07Z</time>
      </trkpt>
      <trkpt lat="57.78025214088" lon="13.44124585303">
        <ele>287.4</ele>
        <time>2019-10-03T15:00:15Z</time>
      </trkpt>
      <trkpt lat="57.780275442562" lon="13.441201764236">
        <ele>288.2</ele>
        <time>2019-10-03T15:00:17Z</time>
      </trkpt>
      <trkpt lat="57.780306958506" lon="13.441131775371">
        <ele>289</ele>
        <time>2019-10-03T15:00:20Z</time>
      </trkpt>
      <trkpt lat="57.780324309039" lon="13.441063798162">
        <ele>289.2</ele>
        <time>2019-10-03T15:00:22Z</time>
      </trkpt>
      <trkpt lat="57.780355322069" lon="13.440909571202">
        <ele>287.8</ele>
        <time>2019-10-03T15:00:27Z</time>
      </trkpt>
      <trkpt lat="57.780372672602" lon="13.440779567933">
        <ele>286.8</ele>
        <time>2019-10-03T15:00:30Z</time>
      </trkpt>
      <trkpt lat="57.780416342301" lon="13.44045041072">
        <ele>286.6</ele>
        <time>2019-10-03T15:00:37Z</time>
      </trkpt>
      <trkpt lat="57.780439392526" lon="13.440238181012">
        <ele>285.4</ele>
        <time>2019-10-03T15:00:42Z</time>
      </trkpt>
      <trkpt lat="57.780529917046" lon="13.439934420956">
        <ele>285.2</ele>
        <time>2019-10-03T15:00:50Z</time>
      </trkpt>
      <trkpt lat="57.780563779922" lon="13.439713474072">
        <ele>284.2</ele>
        <time>2019-10-03T15:00:55Z</time>
      </trkpt>
      <trkpt lat="57.780572078003" lon="13.439626218493">
        <ele>284.2</ele>
        <time>2019-10-03T15:00:57Z</time>
      </trkpt>
      <trkpt lat="57.780574089659" lon="13.439285913353">
        <ele>284.2</ele>
        <time>2019-10-03T15:01:06Z</time>
      </trkpt>
      <trkpt lat="57.780577274781" lon="13.439249787364">
        <ele>284.2</ele>
        <time>2019-10-03T15:01:07Z</time>
      </trkpt>
      <trkpt lat="57.780595295866" lon="13.439185749648">
        <ele>284.2</ele>
        <time>2019-10-03T15:01:09Z</time>
      </trkpt>
      <trkpt lat="57.78071314538" lon="13.439144007786">
        <ele>284.4</ele>
        <time>2019-10-03T15:01:18Z</time>
      </trkpt>
      <trkpt lat="57.780752372672" lon="13.439507782246">
        <ele>284.6</ele>
        <time>2019-10-03T15:01:31Z</time>
      </trkpt>
      <trkpt lat="57.780774752345" lon="13.439561510225">
        <ele>285.6</ele>
        <time>2019-10-03T15:01:33Z</time>
      </trkpt>
      <trkpt lat="57.780797215837" lon="13.439714982814">
        <ele>286.4</ele>
        <time>2019-10-03T15:01:38Z</time>
      </trkpt>
      <trkpt lat="57.780835688758" lon="13.439795616692">
        <ele>286.6</ele>
        <time>2019-10-03T15:01:41Z</time>
      </trkpt>
      <trkpt lat="57.780910790582" lon="13.439940372105">
        <ele>286.6</ele>
        <time>2019-10-03T15:01:46Z</time>
      </trkpt>
      <trkpt lat="57.780926967649" lon="13.439978845026">
        <ele>287.6</ele>
        <time>2019-10-03T15:01:48Z</time>
      </trkpt>
      <trkpt lat="57.780930404228" lon="13.439994770636">
        <ele>287.8</ele>
        <time>2019-10-03T15:01:49Z</time>
      </trkpt>
      <trkpt lat="57.780934846635" lon="13.440009858056">
        <ele>288.2</ele>
        <time>2019-10-03T15:01:50Z</time>
      </trkpt>
      <trkpt lat="57.780972900461" lon="13.4400916654">
        <ele>288.8</ele>
        <time>2019-10-03T15:01:54Z</time>
      </trkpt>
      <trkpt lat="57.780985221854" lon="13.440139609868">
        <ele>288.4</ele>
        <time>2019-10-03T15:01:56Z</time>
      </trkpt>
      <trkpt lat="57.781006344242" lon="13.440186213232">
        <ele>288</ele>
        <time>2019-10-03T15:01:59Z</time>
      </trkpt>
      <trkpt lat="57.781029813562" lon="13.440220076108">
        <ele>287.2</ele>
        <time>2019-10-03T15:02:02Z</time>
      </trkpt>
      <trkpt lat="57.781048756656" lon="13.440227955094">
        <ele>286.8</ele>
        <time>2019-10-03T15:02:04Z</time>
      </trkpt>
      <trkpt lat="57.78109116907" lon="13.440231810768">
        <ele>285.6</ele>
        <time>2019-10-03T15:02:09Z</time>
      </trkpt>
      <trkpt lat="57.781133832941" lon="13.440206413611">
        <ele>284.6</ele>
        <time>2019-10-03T15:02:13Z</time>
      </trkpt>
      <trkpt lat="57.781144058859" lon="13.440196355331">
        <ele>284.4</ele>
        <time>2019-10-03T15:02:14Z</time>
      </trkpt>
      <trkpt lat="57.781318737655" lon="13.440077919084">
        <ele>284.2</ele>
        <time>2019-10-03T15:02:28Z</time>
      </trkpt>
      <trkpt lat="57.781338099844" lon="13.440081188025">
        <ele>284.4</ele>
        <time>2019-10-03T15:02:29Z</time>
      </trkpt>
      <trkpt lat="57.781384116475" lon="13.440176490228">
        <ele>286</ele>
        <time>2019-10-03T15:02:33Z</time>
      </trkpt>
      <trkpt lat="57.781426612708" lon="13.44023918684">
        <ele>287.2</ele>
        <time>2019-10-03T15:02:36Z</time>
      </trkpt>
      <trkpt lat="57.781523507472" lon="13.440396012189">
        <ele>286</ele>
        <time>2019-10-03T15:02:42Z</time>
      </trkpt>
      <trkpt lat="57.781659797166" lon="13.44057278646">
        <ele>285.4</ele>
        <time>2019-10-03T15:02:49Z</time>
      </trkpt>
      <trkpt lat="57.781839086007" lon="13.44047555642">
        <ele>285.4</ele>
        <time>2019-10-03T15:02:56Z</time>
      </trkpt>
      <trkpt lat="57.78201736902" lon="13.440360975847">
        <ele>286</ele>
        <time>2019-10-03T15:03:05Z</time>
      </trkpt>
      <trkpt lat="57.782102612943" lon="13.440223177411">
        <ele>287</ele>
        <time>2019-10-03T15:03:11Z</time>
      </trkpt>
      <trkpt lat="57.782120969304" lon="13.440216723348">
        <ele>287.6</ele>
        <time>2019-10-03T15:03:13Z</time>
      </trkpt>
      <trkpt lat="57.782144103348" lon="13.440191158553">
        <ele>288.2</ele>
        <time>2019-10-03T15:03:15Z</time>
      </trkpt>
      <trkpt lat="57.782278549024" lon="13.44002125744">
        <ele>289.2</ele>
        <time>2019-10-03T15:03:28Z</time>
      </trkpt>
      <trkpt lat="57.782451886716" lon="13.439886392669">
        <ele>290.4</ele>
        <time>2019-10-03T15:03:38Z</time>
      </trkpt>
      <trkpt lat="57.782548278566" lon="13.439809949741">
        <ele>291.6</ele>
        <time>2019-10-03T15:03:43Z</time>
      </trkpt>
    </trkseg>
  </trk>
</gpx>